<?xml version="1.0" encoding="UTF-8" standalone="no" ?>
<gpx xmlns="http://www.topografix.com/GPX/1/1" xmlns:xsi="http://www.w3.org/2001/XMLSchema-instance" xsi:schemaLocation="http://www.topografix.com/GPX/1/1 http://www.topografix.com/GPX/1/1/gpx.xsd" version="1.1" creator="VisuGPX - https://www.visugpx.com">
  <metadata>
    <name>Grand Cheval</name>
    <desc><![CDATA[ A développerA développerA développerA développerA développerA développerA développerA développerA développerA développerA développer]]></desc>
  </metadata>
  <trk>
    <name><![CDATA[Grand Cheval]]></name>
    <trkseg>
      <trkpt lat="45.11176" lon="5.60898">
        <ele>1416.400024414</ele>
        <time>2014-01-18T08:25:30Z</time>
      </trkpt>
      <trkpt lat="45.1118" lon="5.60893">
        <ele>1415.599975586</ele>
        <time>2014-01-18T08:25:51Z</time>
      </trkpt>
      <trkpt lat="45.11182" lon="5.60895">
        <ele>1415.800048828</ele>
        <time>2014-01-18T08:25:55Z</time>
      </trkpt>
      <trkpt lat="45.11182" lon="5.60902">
        <ele>1416.599975586</ele>
        <time>2014-01-18T08:26:00Z</time>
      </trkpt>
      <trkpt lat="45.11187" lon="5.60906">
        <ele>1417</ele>
        <time>2014-01-18T08:26:05Z</time>
      </trkpt>
      <trkpt lat="45.11195" lon="5.60913">
        <ele>1417.400024414</ele>
        <time>2014-01-18T08:26:12Z</time>
      </trkpt>
      <trkpt lat="45.11199" lon="5.60918">
        <ele>1418</ele>
        <time>2014-01-18T08:26:17Z</time>
      </trkpt>
      <trkpt lat="45.11204" lon="5.60927">
        <ele>1418.199951172</ele>
        <time>2014-01-18T08:26:23Z</time>
      </trkpt>
      <trkpt lat="45.11203" lon="5.60934">
        <ele>1418.599975586</ele>
        <time>2014-01-18T08:26:28Z</time>
      </trkpt>
      <trkpt lat="45.112" lon="5.60932">
        <ele>1418.599975586</ele>
        <time>2014-01-18T08:26:32Z</time>
      </trkpt>
      <trkpt lat="45.11198" lon="5.60929">
        <ele>1418.599975586</ele>
        <time>2014-01-18T08:26:34Z</time>
      </trkpt>
      <trkpt lat="45.11192" lon="5.60923">
        <ele>1418.400024414</ele>
        <time>2014-01-18T08:26:39Z</time>
      </trkpt>
      <trkpt lat="45.11185" lon="5.60917">
        <ele>1418.400024414</ele>
        <time>2014-01-18T08:26:45Z</time>
      </trkpt>
      <trkpt lat="45.11175" lon="5.60908">
        <ele>1417.599975586</ele>
        <time>2014-01-18T08:26:52Z</time>
      </trkpt>
      <trkpt lat="45.11169" lon="5.60904">
        <ele>1417.400024414</ele>
        <time>2014-01-18T08:26:57Z</time>
      </trkpt>
      <trkpt lat="45.11162" lon="5.60898">
        <ele>1417.599975586</ele>
        <time>2014-01-18T08:27:02Z</time>
      </trkpt>
      <trkpt lat="45.11156" lon="5.60893">
        <ele>1418.199951172</ele>
        <time>2014-01-18T08:27:07Z</time>
      </trkpt>
      <trkpt lat="45.1115" lon="5.60889">
        <ele>1419</ele>
        <time>2014-01-18T08:27:12Z</time>
      </trkpt>
      <trkpt lat="45.11143" lon="5.60883">
        <ele>1420</ele>
        <time>2014-01-18T08:27:19Z</time>
      </trkpt>
      <trkpt lat="45.11137" lon="5.60878">
        <ele>1420.800048828</ele>
        <time>2014-01-18T08:27:25Z</time>
      </trkpt>
      <trkpt lat="45.11132" lon="5.6087">
        <ele>1421.400024414</ele>
        <time>2014-01-18T08:27:32Z</time>
      </trkpt>
      <trkpt lat="45.11128" lon="5.6086">
        <ele>1421.599975586</ele>
        <time>2014-01-18T08:27:39Z</time>
      </trkpt>
      <trkpt lat="45.11123" lon="5.60848">
        <ele>1421.800048828</ele>
        <time>2014-01-18T08:27:46Z</time>
      </trkpt>
      <trkpt lat="45.11121" lon="5.60835">
        <ele>1421.599975586</ele>
        <time>2014-01-18T08:27:53Z</time>
      </trkpt>
      <trkpt lat="45.11115" lon="5.60825">
        <ele>1421.800048828</ele>
        <time>2014-01-18T08:28:00Z</time>
      </trkpt>
      <trkpt lat="45.11106" lon="5.60822">
        <ele>1423.800048828</ele>
        <time>2014-01-18T08:28:07Z</time>
      </trkpt>
      <trkpt lat="45.111" lon="5.60818">
        <ele>1425</ele>
        <time>2014-01-18T08:28:12Z</time>
      </trkpt>
      <trkpt lat="45.1109" lon="5.60813">
        <ele>1426.599975586</ele>
        <time>2014-01-18T08:28:18Z</time>
      </trkpt>
      <trkpt lat="45.11083" lon="5.60814">
        <ele>1428.599975586</ele>
        <time>2014-01-18T08:28:23Z</time>
      </trkpt>
      <trkpt lat="45.11077" lon="5.60816">
        <ele>1430</ele>
        <time>2014-01-18T08:28:27Z</time>
      </trkpt>
      <trkpt lat="45.11074" lon="5.60816">
        <ele>1430.599975586</ele>
        <time>2014-01-18T08:28:29Z</time>
      </trkpt>
      <trkpt lat="45.1107" lon="5.60817">
        <ele>1431.599975586</ele>
        <time>2014-01-18T08:28:33Z</time>
      </trkpt>
      <trkpt lat="45.11062" lon="5.60817">
        <ele>1433</ele>
        <time>2014-01-18T08:28:39Z</time>
      </trkpt>
      <trkpt lat="45.11053" lon="5.60818">
        <ele>1434.800048828</ele>
        <time>2014-01-18T08:28:45Z</time>
      </trkpt>
      <trkpt lat="45.11045" lon="5.60815">
        <ele>1435.800048828</ele>
        <time>2014-01-18T08:28:50Z</time>
      </trkpt>
      <trkpt lat="45.1104" lon="5.60814">
        <ele>1436.800048828</ele>
        <time>2014-01-18T08:28:56Z</time>
      </trkpt>
      <trkpt lat="45.11032" lon="5.60811">
        <ele>1437.400024414</ele>
        <time>2014-01-18T08:29:02Z</time>
      </trkpt>
      <trkpt lat="45.11031" lon="5.6081">
        <ele>1437.599975586</ele>
        <time>2014-01-18T08:29:03Z</time>
      </trkpt>
      <trkpt lat="45.11024" lon="5.60809">
        <ele>1438.599975586</ele>
        <time>2014-01-18T08:29:08Z</time>
      </trkpt>
      <trkpt lat="45.11021" lon="5.60808">
        <ele>1439.199951172</ele>
        <time>2014-01-18T08:29:11Z</time>
      </trkpt>
      <trkpt lat="45.11018" lon="5.60807">
        <ele>1439.400024414</ele>
        <time>2014-01-18T08:29:14Z</time>
      </trkpt>
      <trkpt lat="45.11017" lon="5.60806">
        <ele>1439.599975586</ele>
        <time>2014-01-18T08:29:15Z</time>
      </trkpt>
      <trkpt lat="45.11013" lon="5.60802">
        <ele>1439.599975586</ele>
        <time>2014-01-18T08:29:19Z</time>
      </trkpt>
      <trkpt lat="45.11011" lon="5.608">
        <ele>1439.800048828</ele>
        <time>2014-01-18T08:29:21Z</time>
      </trkpt>
      <trkpt lat="45.11005" lon="5.608">
        <ele>1441</ele>
        <time>2014-01-18T08:29:27Z</time>
      </trkpt>
      <trkpt lat="45.10999" lon="5.60797">
        <ele>1441.400024414</ele>
        <time>2014-01-18T08:29:33Z</time>
      </trkpt>
      <trkpt lat="45.10997" lon="5.60796">
        <ele>1441.400024414</ele>
        <time>2014-01-18T08:29:36Z</time>
      </trkpt>
      <trkpt lat="45.10993" lon="5.60794">
        <ele>1441.599975586</ele>
        <time>2014-01-18T08:29:40Z</time>
      </trkpt>
      <trkpt lat="45.10985" lon="5.60794">
        <ele>1442.599975586</ele>
        <time>2014-01-18T08:29:47Z</time>
      </trkpt>
      <trkpt lat="45.10979" lon="5.60792">
        <ele>1442.800048828</ele>
        <time>2014-01-18T08:29:53Z</time>
      </trkpt>
      <trkpt lat="45.10977" lon="5.60792">
        <ele>1443</ele>
        <time>2014-01-18T08:29:55Z</time>
      </trkpt>
      <trkpt lat="45.10971" lon="5.60789">
        <ele>1443.199951172</ele>
        <time>2014-01-18T08:30:02Z</time>
      </trkpt>
      <trkpt lat="45.10966" lon="5.60786">
        <ele>1443</ele>
        <time>2014-01-18T08:30:08Z</time>
      </trkpt>
      <trkpt lat="45.10965" lon="5.60786">
        <ele>1443</ele>
        <time>2014-01-18T08:30:09Z</time>
      </trkpt>
      <trkpt lat="45.10958" lon="5.60783">
        <ele>1443</ele>
        <time>2014-01-18T08:30:16Z</time>
      </trkpt>
      <trkpt lat="45.10946" lon="5.60783">
        <ele>1444.199951172</ele>
        <time>2014-01-18T08:30:26Z</time>
      </trkpt>
      <trkpt lat="45.10939" lon="5.60783">
        <ele>1444.800048828</ele>
        <time>2014-01-18T08:30:34Z</time>
      </trkpt>
      <trkpt lat="45.10933" lon="5.60782">
        <ele>1445.199951172</ele>
        <time>2014-01-18T08:30:39Z</time>
      </trkpt>
      <trkpt lat="45.10932" lon="5.60782">
        <ele>1445.199951172</ele>
        <time>2014-01-18T08:30:40Z</time>
      </trkpt>
      <trkpt lat="45.10928" lon="5.60781">
        <ele>1445.199951172</ele>
        <time>2014-01-18T08:30:44Z</time>
      </trkpt>
      <trkpt lat="45.10926" lon="5.6078">
        <ele>1445.199951172</ele>
        <time>2014-01-18T08:30:46Z</time>
      </trkpt>
      <trkpt lat="45.10919" lon="5.60779">
        <ele>1445.400024414</ele>
        <time>2014-01-18T08:30:52Z</time>
      </trkpt>
      <trkpt lat="45.10916" lon="5.6078">
        <ele>1446.199951172</ele>
        <time>2014-01-18T08:30:55Z</time>
      </trkpt>
      <trkpt lat="45.10908" lon="5.60779">
        <ele>1445.800048828</ele>
        <time>2014-01-18T08:31:03Z</time>
      </trkpt>
      <trkpt lat="45.109" lon="5.6078">
        <ele>1446.199951172</ele>
        <time>2014-01-18T08:31:10Z</time>
      </trkpt>
      <trkpt lat="45.10892" lon="5.60783">
        <ele>1447.199951172</ele>
        <time>2014-01-18T08:31:18Z</time>
      </trkpt>
      <trkpt lat="45.10885" lon="5.60786">
        <ele>1448</ele>
        <time>2014-01-18T08:31:24Z</time>
      </trkpt>
      <trkpt lat="45.10879" lon="5.6079">
        <ele>1449.400024414</ele>
        <time>2014-01-18T08:31:30Z</time>
      </trkpt>
      <trkpt lat="45.10872" lon="5.6079">
        <ele>1449.400024414</ele>
        <time>2014-01-18T08:31:34Z</time>
      </trkpt>
      <trkpt lat="45.10871" lon="5.6079">
        <ele>1449.400024414</ele>
        <time>2014-01-18T08:31:35Z</time>
      </trkpt>
      <trkpt lat="45.10863" lon="5.60794">
        <ele>1451</ele>
        <time>2014-01-18T08:31:42Z</time>
      </trkpt>
      <trkpt lat="45.10856" lon="5.60799">
        <ele>1452.800048828</ele>
        <time>2014-01-18T08:31:48Z</time>
      </trkpt>
      <trkpt lat="45.10847" lon="5.60803">
        <ele>1454.199951172</ele>
        <time>2014-01-18T08:31:55Z</time>
      </trkpt>
      <trkpt lat="45.10836" lon="5.60804">
        <ele>1454.800048828</ele>
        <time>2014-01-18T08:32:02Z</time>
      </trkpt>
      <trkpt lat="45.10827" lon="5.60804">
        <ele>1455</ele>
        <time>2014-01-18T08:32:09Z</time>
      </trkpt>
      <trkpt lat="45.10818" lon="5.60805">
        <ele>1455.400024414</ele>
        <time>2014-01-18T08:32:15Z</time>
      </trkpt>
      <trkpt lat="45.10817" lon="5.60805">
        <ele>1455.400024414</ele>
        <time>2014-01-18T08:32:16Z</time>
      </trkpt>
      <trkpt lat="45.1081" lon="5.60806">
        <ele>1455.800048828</ele>
        <time>2014-01-18T08:32:20Z</time>
      </trkpt>
      <trkpt lat="45.10809" lon="5.60807">
        <ele>1455.800048828</ele>
        <time>2014-01-18T08:32:21Z</time>
      </trkpt>
      <trkpt lat="45.10799" lon="5.60808">
        <ele>1456.400024414</ele>
        <time>2014-01-18T08:32:28Z</time>
      </trkpt>
      <trkpt lat="45.10792" lon="5.60811">
        <ele>1457.599975586</ele>
        <time>2014-01-18T08:32:34Z</time>
      </trkpt>
      <trkpt lat="45.10781" lon="5.60813">
        <ele>1458.199951172</ele>
        <time>2014-01-18T08:32:42Z</time>
      </trkpt>
      <trkpt lat="45.10776" lon="5.60812">
        <ele>1457.800048828</ele>
        <time>2014-01-18T08:32:46Z</time>
      </trkpt>
      <trkpt lat="45.10769" lon="5.60814">
        <ele>1458.400024414</ele>
        <time>2014-01-18T08:32:51Z</time>
      </trkpt>
      <trkpt lat="45.10761" lon="5.60816">
        <ele>1459</ele>
        <time>2014-01-18T08:32:57Z</time>
      </trkpt>
      <trkpt lat="45.10751" lon="5.60821">
        <ele>1460.400024414</ele>
        <time>2014-01-18T08:33:05Z</time>
      </trkpt>
      <trkpt lat="45.10743" lon="5.60826">
        <ele>1462.199951172</ele>
        <time>2014-01-18T08:33:12Z</time>
      </trkpt>
      <trkpt lat="45.10737" lon="5.6083">
        <ele>1463.400024414</ele>
        <time>2014-01-18T08:33:17Z</time>
      </trkpt>
      <trkpt lat="45.10727" lon="5.60831">
        <ele>1463.800048828</ele>
        <time>2014-01-18T08:33:23Z</time>
      </trkpt>
      <trkpt lat="45.1072" lon="5.60835">
        <ele>1465.199951172</ele>
        <time>2014-01-18T08:33:28Z</time>
      </trkpt>
      <trkpt lat="45.10712" lon="5.60839">
        <ele>1466.199951172</ele>
        <time>2014-01-18T08:33:34Z</time>
      </trkpt>
      <trkpt lat="45.1071" lon="5.6084">
        <ele>1466.199951172</ele>
        <time>2014-01-18T08:33:35Z</time>
      </trkpt>
      <trkpt lat="45.10704" lon="5.6084">
        <ele>1466.400024414</ele>
        <time>2014-01-18T08:33:38Z</time>
      </trkpt>
      <trkpt lat="45.10699" lon="5.60844">
        <ele>1467.400024414</ele>
        <time>2014-01-18T08:33:43Z</time>
      </trkpt>
      <trkpt lat="45.10697" lon="5.60846">
        <ele>1467.599975586</ele>
        <time>2014-01-18T08:33:44Z</time>
      </trkpt>
      <trkpt lat="45.10694" lon="5.60848">
        <ele>1468.199951172</ele>
        <time>2014-01-18T08:33:47Z</time>
      </trkpt>
      <trkpt lat="45.10686" lon="5.60852">
        <ele>1468.800048828</ele>
        <time>2014-01-18T08:33:52Z</time>
      </trkpt>
      <trkpt lat="45.10685" lon="5.60854">
        <ele>1469</ele>
        <time>2014-01-18T08:33:53Z</time>
      </trkpt>
      <trkpt lat="45.10681" lon="5.60859">
        <ele>1469.800048828</ele>
        <time>2014-01-18T08:33:57Z</time>
      </trkpt>
      <trkpt lat="45.10673" lon="5.60866">
        <ele>1470.800048828</ele>
        <time>2014-01-18T08:34:02Z</time>
      </trkpt>
      <trkpt lat="45.10672" lon="5.60866">
        <ele>1470.800048828</ele>
        <time>2014-01-18T08:34:03Z</time>
      </trkpt>
      <trkpt lat="45.10664" lon="5.60872">
        <ele>1471.599975586</ele>
        <time>2014-01-18T08:34:09Z</time>
      </trkpt>
      <trkpt lat="45.1066" lon="5.60875">
        <ele>1472</ele>
        <time>2014-01-18T08:34:12Z</time>
      </trkpt>
      <trkpt lat="45.10657" lon="5.60876">
        <ele>1472</ele>
        <time>2014-01-18T08:34:14Z</time>
      </trkpt>
      <trkpt lat="45.10654" lon="5.60878">
        <ele>1472.400024414</ele>
        <time>2014-01-18T08:34:17Z</time>
      </trkpt>
      <trkpt lat="45.10652" lon="5.6088">
        <ele>1472.599975586</ele>
        <time>2014-01-18T08:34:18Z</time>
      </trkpt>
      <trkpt lat="45.10647" lon="5.60883">
        <ele>1473.199951172</ele>
        <time>2014-01-18T08:34:22Z</time>
      </trkpt>
      <trkpt lat="45.10647" lon="5.60884">
        <ele>1473.400024414</ele>
        <time>2014-01-18T08:34:23Z</time>
      </trkpt>
      <trkpt lat="45.1064" lon="5.60888">
        <ele>1473.800048828</ele>
        <time>2014-01-18T08:34:28Z</time>
      </trkpt>
      <trkpt lat="45.10634" lon="5.60896">
        <ele>1474.800048828</ele>
        <time>2014-01-18T08:34:33Z</time>
      </trkpt>
      <trkpt lat="45.10628" lon="5.60902">
        <ele>1475.599975586</ele>
        <time>2014-01-18T08:34:39Z</time>
      </trkpt>
      <trkpt lat="45.10619" lon="5.60907">
        <ele>1476.199951172</ele>
        <time>2014-01-18T08:34:45Z</time>
      </trkpt>
      <trkpt lat="45.10618" lon="5.60909">
        <ele>1476.400024414</ele>
        <time>2014-01-18T08:34:46Z</time>
      </trkpt>
      <trkpt lat="45.10614" lon="5.60913">
        <ele>1476.800048828</ele>
        <time>2014-01-18T08:34:50Z</time>
      </trkpt>
      <trkpt lat="45.10606" lon="5.60923">
        <ele>1479.199951172</ele>
        <time>2014-01-18T08:34:56Z</time>
      </trkpt>
      <trkpt lat="45.106" lon="5.60929">
        <ele>1481</ele>
        <time>2014-01-18T08:35:01Z</time>
      </trkpt>
      <trkpt lat="45.10598" lon="5.60931">
        <ele>1481.400024414</ele>
        <time>2014-01-18T08:35:03Z</time>
      </trkpt>
      <trkpt lat="45.10593" lon="5.60935">
        <ele>1482.400024414</ele>
        <time>2014-01-18T08:35:07Z</time>
      </trkpt>
      <trkpt lat="45.1059" lon="5.60936">
        <ele>1482.800048828</ele>
        <time>2014-01-18T08:35:09Z</time>
      </trkpt>
      <trkpt lat="45.10587" lon="5.60935">
        <ele>1482.400024414</ele>
        <time>2014-01-18T08:35:12Z</time>
      </trkpt>
      <trkpt lat="45.10582" lon="5.60936">
        <ele>1482.599975586</ele>
        <time>2014-01-18T08:35:17Z</time>
      </trkpt>
      <trkpt lat="45.1058" lon="5.60935">
        <ele>1482.599975586</ele>
        <time>2014-01-18T08:35:18Z</time>
      </trkpt>
      <trkpt lat="45.10569" lon="5.60934">
        <ele>1482.800048828</ele>
        <time>2014-01-18T08:35:25Z</time>
      </trkpt>
      <trkpt lat="45.10562" lon="5.60931">
        <ele>1482.400024414</ele>
        <time>2014-01-18T08:35:30Z</time>
      </trkpt>
      <trkpt lat="45.10554" lon="5.60928">
        <ele>1482.199951172</ele>
        <time>2014-01-18T08:35:36Z</time>
      </trkpt>
      <trkpt lat="45.10551" lon="5.60927">
        <ele>1481.800048828</ele>
        <time>2014-01-18T08:35:39Z</time>
      </trkpt>
      <trkpt lat="45.10547" lon="5.60926">
        <ele>1482</ele>
        <time>2014-01-18T08:35:42Z</time>
      </trkpt>
      <trkpt lat="45.10545" lon="5.60926">
        <ele>1482</ele>
        <time>2014-01-18T08:35:44Z</time>
      </trkpt>
      <trkpt lat="45.10542" lon="5.60925">
        <ele>1482</ele>
        <time>2014-01-18T08:35:47Z</time>
      </trkpt>
      <trkpt lat="45.10541" lon="5.60924">
        <ele>1481.599975586</ele>
        <time>2014-01-18T08:35:48Z</time>
      </trkpt>
      <trkpt lat="45.10533" lon="5.60925">
        <ele>1482.199951172</ele>
        <time>2014-01-18T08:35:53Z</time>
      </trkpt>
      <trkpt lat="45.10531" lon="5.60924">
        <ele>1482.199951172</ele>
        <time>2014-01-18T08:35:54Z</time>
      </trkpt>
      <trkpt lat="45.10523" lon="5.6092">
        <ele>1481.599975586</ele>
        <time>2014-01-18T08:35:58Z</time>
      </trkpt>
      <trkpt lat="45.10522" lon="5.6092">
        <ele>1481.599975586</ele>
        <time>2014-01-18T08:35:59Z</time>
      </trkpt>
      <trkpt lat="45.10515" lon="5.60919">
        <ele>1481.599975586</ele>
        <time>2014-01-18T08:36:05Z</time>
      </trkpt>
      <trkpt lat="45.1051" lon="5.60919">
        <ele>1482.199951172</ele>
        <time>2014-01-18T08:36:09Z</time>
      </trkpt>
      <trkpt lat="45.10509" lon="5.60919">
        <ele>1482</ele>
        <time>2014-01-18T08:36:10Z</time>
      </trkpt>
      <trkpt lat="45.10502" lon="5.60916">
        <ele>1481.800048828</ele>
        <time>2014-01-18T08:36:14Z</time>
      </trkpt>
      <trkpt lat="45.10501" lon="5.60916">
        <ele>1482</ele>
        <time>2014-01-18T08:36:15Z</time>
      </trkpt>
      <trkpt lat="45.10493" lon="5.60916">
        <ele>1483</ele>
        <time>2014-01-18T08:36:20Z</time>
      </trkpt>
      <trkpt lat="45.10483" lon="5.6091">
        <ele>1483.800048828</ele>
        <time>2014-01-18T08:36:24Z</time>
      </trkpt>
      <trkpt lat="45.1048" lon="5.60908">
        <ele>1484.199951172</ele>
        <time>2014-01-18T08:36:26Z</time>
      </trkpt>
      <trkpt lat="45.10478" lon="5.60908">
        <ele>1484.400024414</ele>
        <time>2014-01-18T08:36:27Z</time>
      </trkpt>
      <trkpt lat="45.10473" lon="5.60908">
        <ele>1485.400024414</ele>
        <time>2014-01-18T08:36:31Z</time>
      </trkpt>
      <trkpt lat="45.10463" lon="5.60908">
        <ele>1486.800048828</ele>
        <time>2014-01-18T08:36:37Z</time>
      </trkpt>
      <trkpt lat="45.10462" lon="5.6091">
        <ele>1487.199951172</ele>
        <time>2014-01-18T08:36:38Z</time>
      </trkpt>
      <trkpt lat="45.10456" lon="5.6091">
        <ele>1488.199951172</ele>
        <time>2014-01-18T08:36:42Z</time>
      </trkpt>
      <trkpt lat="45.10449" lon="5.60909">
        <ele>1489.199951172</ele>
        <time>2014-01-18T08:36:48Z</time>
      </trkpt>
      <trkpt lat="45.10448" lon="5.60908">
        <ele>1489.199951172</ele>
        <time>2014-01-18T08:36:49Z</time>
      </trkpt>
      <trkpt lat="45.1044" lon="5.60905">
        <ele>1490.199951172</ele>
        <time>2014-01-18T08:36:55Z</time>
      </trkpt>
      <trkpt lat="45.1044" lon="5.60906">
        <ele>1490.400024414</ele>
        <time>2014-01-18T08:36:56Z</time>
      </trkpt>
      <trkpt lat="45.10433" lon="5.60906">
        <ele>1491.400024414</ele>
        <time>2014-01-18T08:37:02Z</time>
      </trkpt>
      <trkpt lat="45.10432" lon="5.60907">
        <ele>1491.599975586</ele>
        <time>2014-01-18T08:37:03Z</time>
      </trkpt>
      <trkpt lat="45.10428" lon="5.60905">
        <ele>1492.199951172</ele>
        <time>2014-01-18T08:37:05Z</time>
      </trkpt>
      <trkpt lat="45.10423" lon="5.60902">
        <ele>1492.800048828</ele>
        <time>2014-01-18T08:37:08Z</time>
      </trkpt>
      <trkpt lat="45.10419" lon="5.60903">
        <ele>1493.599975586</ele>
        <time>2014-01-18T08:37:12Z</time>
      </trkpt>
      <trkpt lat="45.10417" lon="5.60904">
        <ele>1493.800048828</ele>
        <time>2014-01-18T08:37:13Z</time>
      </trkpt>
      <trkpt lat="45.10411" lon="5.60903">
        <ele>1494.599975586</ele>
        <time>2014-01-18T08:37:18Z</time>
      </trkpt>
      <trkpt lat="45.1041" lon="5.60902">
        <ele>1494.800048828</ele>
        <time>2014-01-18T08:37:19Z</time>
      </trkpt>
      <trkpt lat="45.10404" lon="5.60902">
        <ele>1495.400024414</ele>
        <time>2014-01-18T08:37:24Z</time>
      </trkpt>
      <trkpt lat="45.10403" lon="5.60901">
        <ele>1495.599975586</ele>
        <time>2014-01-18T08:37:26Z</time>
      </trkpt>
      <trkpt lat="45.10398" lon="5.60902">
        <ele>1496.599975586</ele>
        <time>2014-01-18T08:37:30Z</time>
      </trkpt>
      <trkpt lat="45.10396" lon="5.60902">
        <ele>1496.599975586</ele>
        <time>2014-01-18T08:37:31Z</time>
      </trkpt>
      <trkpt lat="45.10394" lon="5.60902">
        <ele>1497</ele>
        <time>2014-01-18T08:37:33Z</time>
      </trkpt>
      <trkpt lat="45.10393" lon="5.60901">
        <ele>1497</ele>
        <time>2014-01-18T08:37:34Z</time>
      </trkpt>
      <trkpt lat="45.10389" lon="5.60898">
        <ele>1497.199951172</ele>
        <time>2014-01-18T08:37:38Z</time>
      </trkpt>
      <trkpt lat="45.10388" lon="5.60899">
        <ele>1497.400024414</ele>
        <time>2014-01-18T08:37:39Z</time>
      </trkpt>
      <trkpt lat="45.10387" lon="5.60899">
        <ele>1497.599975586</ele>
        <time>2014-01-18T08:37:40Z</time>
      </trkpt>
      <trkpt lat="45.10386" lon="5.60902">
        <ele>1498</ele>
        <time>2014-01-18T08:37:44Z</time>
      </trkpt>
      <trkpt lat="45.10386" lon="5.60902">
        <ele>1498.199951172</ele>
        <time>2014-01-18T08:37:45Z</time>
      </trkpt>
      <trkpt lat="45.10386" lon="5.60901">
        <ele>1498</ele>
        <time>2014-01-18T08:37:52Z</time>
      </trkpt>
      <trkpt lat="45.10388" lon="5.60907">
        <ele>1498.400024414</ele>
        <time>2014-01-18T08:38:18Z</time>
      </trkpt>
      <trkpt lat="45.10386" lon="5.60903">
        <ele>1498.199951172</ele>
        <time>2014-01-18T08:38:43Z</time>
      </trkpt>
      <trkpt lat="45.1038" lon="5.60899">
        <ele>1498.599975586</ele>
        <time>2014-01-18T08:38:47Z</time>
      </trkpt>
      <trkpt lat="45.1037" lon="5.60898">
        <ele>1499.800048828</ele>
        <time>2014-01-18T08:38:54Z</time>
      </trkpt>
      <trkpt lat="45.10368" lon="5.60898">
        <ele>1500</ele>
        <time>2014-01-18T08:38:55Z</time>
      </trkpt>
      <trkpt lat="45.10362" lon="5.60897">
        <ele>1500.800048828</ele>
        <time>2014-01-18T08:38:59Z</time>
      </trkpt>
      <trkpt lat="45.10361" lon="5.60896">
        <ele>1500.800048828</ele>
        <time>2014-01-18T08:39:00Z</time>
      </trkpt>
      <trkpt lat="45.10353" lon="5.60895">
        <ele>1501.800048828</ele>
        <time>2014-01-18T08:39:05Z</time>
      </trkpt>
      <trkpt lat="45.10351" lon="5.60894">
        <ele>1502</ele>
        <time>2014-01-18T08:39:07Z</time>
      </trkpt>
      <trkpt lat="45.10347" lon="5.60893">
        <ele>1502.199951172</ele>
        <time>2014-01-18T08:39:10Z</time>
      </trkpt>
      <trkpt lat="45.1034" lon="5.60894">
        <ele>1503.400024414</ele>
        <time>2014-01-18T08:39:16Z</time>
      </trkpt>
      <trkpt lat="45.10338" lon="5.60895">
        <ele>1503.599975586</ele>
        <time>2014-01-18T08:39:18Z</time>
      </trkpt>
      <trkpt lat="45.10335" lon="5.60896">
        <ele>1504.199951172</ele>
        <time>2014-01-18T08:39:20Z</time>
      </trkpt>
      <trkpt lat="45.1033" lon="5.60897">
        <ele>1505.199951172</ele>
        <time>2014-01-18T08:39:25Z</time>
      </trkpt>
      <trkpt lat="45.1032" lon="5.60895">
        <ele>1506.400024414</ele>
        <time>2014-01-18T08:39:32Z</time>
      </trkpt>
      <trkpt lat="45.10313" lon="5.60895">
        <ele>1507.400024414</ele>
        <time>2014-01-18T08:39:37Z</time>
      </trkpt>
      <trkpt lat="45.10312" lon="5.60895">
        <ele>1507.599975586</ele>
        <time>2014-01-18T08:39:38Z</time>
      </trkpt>
      <trkpt lat="45.10311" lon="5.60895">
        <ele>1507.800048828</ele>
        <time>2014-01-18T08:39:39Z</time>
      </trkpt>
      <trkpt lat="45.10306" lon="5.60895">
        <ele>1508.400024414</ele>
        <time>2014-01-18T08:39:42Z</time>
      </trkpt>
      <trkpt lat="45.10296" lon="5.60892">
        <ele>1509.599975586</ele>
        <time>2014-01-18T08:39:49Z</time>
      </trkpt>
      <trkpt lat="45.10295" lon="5.60891">
        <ele>1509.599975586</ele>
        <time>2014-01-18T08:39:50Z</time>
      </trkpt>
      <trkpt lat="45.10292" lon="5.6089">
        <ele>1510</ele>
        <time>2014-01-18T08:39:53Z</time>
      </trkpt>
      <trkpt lat="45.10291" lon="5.60889">
        <ele>1510</ele>
        <time>2014-01-18T08:39:54Z</time>
      </trkpt>
      <trkpt lat="45.10283" lon="5.60887">
        <ele>1510.800048828</ele>
        <time>2014-01-18T08:40:00Z</time>
      </trkpt>
      <trkpt lat="45.10277" lon="5.60886">
        <ele>1511.599975586</ele>
        <time>2014-01-18T08:40:05Z</time>
      </trkpt>
      <trkpt lat="45.10276" lon="5.60886">
        <ele>1512</ele>
        <time>2014-01-18T08:40:06Z</time>
      </trkpt>
      <trkpt lat="45.10266" lon="5.60885">
        <ele>1513.400024414</ele>
        <time>2014-01-18T08:40:13Z</time>
      </trkpt>
      <trkpt lat="45.10262" lon="5.60888">
        <ele>1514.400024414</ele>
        <time>2014-01-18T08:40:17Z</time>
      </trkpt>
      <trkpt lat="45.1026" lon="5.60888">
        <ele>1514.599975586</ele>
        <time>2014-01-18T08:40:18Z</time>
      </trkpt>
      <trkpt lat="45.10255" lon="5.60887">
        <ele>1515.199951172</ele>
        <time>2014-01-18T08:40:24Z</time>
      </trkpt>
      <trkpt lat="45.10253" lon="5.60886">
        <ele>1515.400024414</ele>
        <time>2014-01-18T08:40:25Z</time>
      </trkpt>
      <trkpt lat="45.10253" lon="5.60887">
        <ele>1515.599975586</ele>
        <time>2014-01-18T08:40:26Z</time>
      </trkpt>
      <trkpt lat="45.10248" lon="5.60886">
        <ele>1516.199951172</ele>
        <time>2014-01-18T08:40:29Z</time>
      </trkpt>
      <trkpt lat="45.10245" lon="5.60886">
        <ele>1516.599975586</ele>
        <time>2014-01-18T08:40:31Z</time>
      </trkpt>
      <trkpt lat="45.10239" lon="5.60885">
        <ele>1517.400024414</ele>
        <time>2014-01-18T08:40:36Z</time>
      </trkpt>
      <trkpt lat="45.10231" lon="5.60887">
        <ele>1518.599975586</ele>
        <time>2014-01-18T08:40:42Z</time>
      </trkpt>
      <trkpt lat="45.1023" lon="5.60888">
        <ele>1518.800048828</ele>
        <time>2014-01-18T08:40:43Z</time>
      </trkpt>
      <trkpt lat="45.10226" lon="5.60889">
        <ele>1519.400024414</ele>
        <time>2014-01-18T08:40:47Z</time>
      </trkpt>
      <trkpt lat="45.10219" lon="5.60884">
        <ele>1519.800048828</ele>
        <time>2014-01-18T08:40:53Z</time>
      </trkpt>
      <trkpt lat="45.10212" lon="5.60879">
        <ele>1520.199951172</ele>
        <time>2014-01-18T08:40:59Z</time>
      </trkpt>
      <trkpt lat="45.10207" lon="5.60877">
        <ele>1520.599975586</ele>
        <time>2014-01-18T08:41:05Z</time>
      </trkpt>
      <trkpt lat="45.10204" lon="5.60876">
        <ele>1521</ele>
        <time>2014-01-18T08:41:07Z</time>
      </trkpt>
      <trkpt lat="45.10201" lon="5.60876">
        <ele>1521.400024414</ele>
        <time>2014-01-18T08:41:09Z</time>
      </trkpt>
      <trkpt lat="45.10194" lon="5.60876">
        <ele>1522.199951172</ele>
        <time>2014-01-18T08:41:14Z</time>
      </trkpt>
      <trkpt lat="45.10187" lon="5.60875">
        <ele>1523.199951172</ele>
        <time>2014-01-18T08:41:19Z</time>
      </trkpt>
      <trkpt lat="45.10179" lon="5.60874">
        <ele>1524.199951172</ele>
        <time>2014-01-18T08:41:24Z</time>
      </trkpt>
      <trkpt lat="45.10175" lon="5.60876">
        <ele>1524.800048828</ele>
        <time>2014-01-18T08:41:27Z</time>
      </trkpt>
      <trkpt lat="45.10171" lon="5.60876">
        <ele>1525.599975586</ele>
        <time>2014-01-18T08:41:30Z</time>
      </trkpt>
      <trkpt lat="45.10168" lon="5.60877">
        <ele>1526</ele>
        <time>2014-01-18T08:41:33Z</time>
      </trkpt>
      <trkpt lat="45.10165" lon="5.60878">
        <ele>1526.599975586</ele>
        <time>2014-01-18T08:41:35Z</time>
      </trkpt>
      <trkpt lat="45.10158" lon="5.6088">
        <ele>1528.400024414</ele>
        <time>2014-01-18T08:41:40Z</time>
      </trkpt>
      <trkpt lat="45.10151" lon="5.60882">
        <ele>1530</ele>
        <time>2014-01-18T08:41:46Z</time>
      </trkpt>
      <trkpt lat="45.1015" lon="5.60882">
        <ele>1530.199951172</ele>
        <time>2014-01-18T08:41:47Z</time>
      </trkpt>
      <trkpt lat="45.10146" lon="5.60884">
        <ele>1531.400024414</ele>
        <time>2014-01-18T08:41:52Z</time>
      </trkpt>
      <trkpt lat="45.10139" lon="5.60888">
        <ele>1533.199951172</ele>
        <time>2014-01-18T08:41:58Z</time>
      </trkpt>
      <trkpt lat="45.10132" lon="5.60893">
        <ele>1535.199951172</ele>
        <time>2014-01-18T08:42:04Z</time>
      </trkpt>
      <trkpt lat="45.1013" lon="5.60894">
        <ele>1535.599975586</ele>
        <time>2014-01-18T08:42:05Z</time>
      </trkpt>
      <trkpt lat="45.10126" lon="5.60896">
        <ele>1536.800048828</ele>
        <time>2014-01-18T08:42:09Z</time>
      </trkpt>
      <trkpt lat="45.10121" lon="5.60898">
        <ele>1538</ele>
        <time>2014-01-18T08:42:14Z</time>
      </trkpt>
      <trkpt lat="45.1012" lon="5.60897">
        <ele>1538</ele>
        <time>2014-01-18T08:42:23Z</time>
      </trkpt>
      <trkpt lat="45.10116" lon="5.60898">
        <ele>1539</ele>
        <time>2014-01-18T08:42:28Z</time>
      </trkpt>
      <trkpt lat="45.10112" lon="5.609">
        <ele>1540</ele>
        <time>2014-01-18T08:42:33Z</time>
      </trkpt>
      <trkpt lat="45.10111" lon="5.609">
        <ele>1540</ele>
        <time>2014-01-18T08:42:34Z</time>
      </trkpt>
      <trkpt lat="45.10108" lon="5.60903">
        <ele>1541</ele>
        <time>2014-01-18T08:42:39Z</time>
      </trkpt>
      <trkpt lat="45.10103" lon="5.60904">
        <ele>1542.199951172</ele>
        <time>2014-01-18T08:42:44Z</time>
      </trkpt>
      <trkpt lat="45.10098" lon="5.60905">
        <ele>1543.199951172</ele>
        <time>2014-01-18T08:42:49Z</time>
      </trkpt>
      <trkpt lat="45.10094" lon="5.60906">
        <ele>1544.199951172</ele>
        <time>2014-01-18T08:42:54Z</time>
      </trkpt>
      <trkpt lat="45.10092" lon="5.60907">
        <ele>1544.800048828</ele>
        <time>2014-01-18T08:42:56Z</time>
      </trkpt>
      <trkpt lat="45.10089" lon="5.60907">
        <ele>1545.400024414</ele>
        <time>2014-01-18T08:42:59Z</time>
      </trkpt>
      <trkpt lat="45.10088" lon="5.60907">
        <ele>1545.599975586</ele>
        <time>2014-01-18T08:43:00Z</time>
      </trkpt>
      <trkpt lat="45.10085" lon="5.60908">
        <ele>1546</ele>
        <time>2014-01-18T08:43:03Z</time>
      </trkpt>
      <trkpt lat="45.10083" lon="5.60908">
        <ele>1546.400024414</ele>
        <time>2014-01-18T08:43:05Z</time>
      </trkpt>
      <trkpt lat="45.10082" lon="5.60908">
        <ele>1546.800048828</ele>
        <time>2014-01-18T08:43:07Z</time>
      </trkpt>
      <trkpt lat="45.10077" lon="5.60908">
        <ele>1548</ele>
        <time>2014-01-18T08:43:12Z</time>
      </trkpt>
      <trkpt lat="45.10073" lon="5.60908">
        <ele>1549</ele>
        <time>2014-01-18T08:43:17Z</time>
      </trkpt>
      <trkpt lat="45.10069" lon="5.6091">
        <ele>1550</ele>
        <time>2014-01-18T08:43:22Z</time>
      </trkpt>
      <trkpt lat="45.10067" lon="5.6091">
        <ele>1550.599975586</ele>
        <time>2014-01-18T08:43:25Z</time>
      </trkpt>
      <trkpt lat="45.10065" lon="5.6091">
        <ele>1550.800048828</ele>
        <time>2014-01-18T08:43:27Z</time>
      </trkpt>
      <trkpt lat="45.10062" lon="5.60912">
        <ele>1552</ele>
        <time>2014-01-18T08:43:32Z</time>
      </trkpt>
      <trkpt lat="45.10059" lon="5.60913">
        <ele>1552.599975586</ele>
        <time>2014-01-18T08:43:36Z</time>
      </trkpt>
      <trkpt lat="45.10056" lon="5.60915">
        <ele>1553.400024414</ele>
        <time>2014-01-18T08:43:41Z</time>
      </trkpt>
      <trkpt lat="45.10052" lon="5.60917">
        <ele>1554.800048828</ele>
        <time>2014-01-18T08:43:47Z</time>
      </trkpt>
      <trkpt lat="45.10049" lon="5.60919">
        <ele>1555.599975586</ele>
        <time>2014-01-18T08:43:51Z</time>
      </trkpt>
      <trkpt lat="45.10047" lon="5.6092">
        <ele>1556.199951172</ele>
        <time>2014-01-18T08:43:55Z</time>
      </trkpt>
      <trkpt lat="45.10044" lon="5.6092">
        <ele>1557</ele>
        <time>2014-01-18T08:43:59Z</time>
      </trkpt>
      <trkpt lat="45.10041" lon="5.60923">
        <ele>1558</ele>
        <time>2014-01-18T08:44:04Z</time>
      </trkpt>
      <trkpt lat="45.10039" lon="5.60924">
        <ele>1559</ele>
        <time>2014-01-18T08:44:08Z</time>
      </trkpt>
      <trkpt lat="45.10036" lon="5.60925">
        <ele>1559.599975586</ele>
        <time>2014-01-18T08:44:12Z</time>
      </trkpt>
      <trkpt lat="45.10033" lon="5.60928">
        <ele>1560.800048828</ele>
        <time>2014-01-18T08:44:17Z</time>
      </trkpt>
      <trkpt lat="45.10031" lon="5.60929">
        <ele>1561.400024414</ele>
        <time>2014-01-18T08:44:20Z</time>
      </trkpt>
      <trkpt lat="45.10028" lon="5.6093">
        <ele>1562.199951172</ele>
        <time>2014-01-18T08:44:25Z</time>
      </trkpt>
      <trkpt lat="45.10027" lon="5.60929">
        <ele>1562.400024414</ele>
        <time>2014-01-18T08:44:26Z</time>
      </trkpt>
      <trkpt lat="45.10024" lon="5.60931">
        <ele>1563.400024414</ele>
        <time>2014-01-18T08:44:31Z</time>
      </trkpt>
      <trkpt lat="45.1002" lon="5.60933">
        <ele>1564.599975586</ele>
        <time>2014-01-18T08:44:35Z</time>
      </trkpt>
      <trkpt lat="45.10018" lon="5.60934">
        <ele>1565.199951172</ele>
        <time>2014-01-18T08:44:38Z</time>
      </trkpt>
      <trkpt lat="45.10018" lon="5.60934">
        <ele>1565.199951172</ele>
        <time>2014-01-18T08:44:39Z</time>
      </trkpt>
      <trkpt lat="45.10016" lon="5.60934">
        <ele>1565.599975586</ele>
        <time>2014-01-18T08:44:41Z</time>
      </trkpt>
      <trkpt lat="45.10014" lon="5.60935">
        <ele>1566</ele>
        <time>2014-01-18T08:44:43Z</time>
      </trkpt>
      <trkpt lat="45.10012" lon="5.60937">
        <ele>1566.800048828</ele>
        <time>2014-01-18T08:44:46Z</time>
      </trkpt>
      <trkpt lat="45.1001" lon="5.60938">
        <ele>1567.400024414</ele>
        <time>2014-01-18T08:44:48Z</time>
      </trkpt>
      <trkpt lat="45.10006" lon="5.6094">
        <ele>1568.599975586</ele>
        <time>2014-01-18T08:44:53Z</time>
      </trkpt>
      <trkpt lat="45.10004" lon="5.6094">
        <ele>1568.800048828</ele>
        <time>2014-01-18T08:44:54Z</time>
      </trkpt>
      <trkpt lat="45.10002" lon="5.6094">
        <ele>1569.400024414</ele>
        <time>2014-01-18T08:44:57Z</time>
      </trkpt>
      <trkpt lat="45.10002" lon="5.6094">
        <ele>1569.400024414</ele>
        <time>2014-01-18T08:44:58Z</time>
      </trkpt>
      <trkpt lat="45.09999" lon="5.6094">
        <ele>1570.199951172</ele>
        <time>2014-01-18T08:45:02Z</time>
      </trkpt>
      <trkpt lat="45.09998" lon="5.60941">
        <ele>1570.199951172</ele>
        <time>2014-01-18T08:45:03Z</time>
      </trkpt>
      <trkpt lat="45.09996" lon="5.60941">
        <ele>1570.599975586</ele>
        <time>2014-01-18T08:45:05Z</time>
      </trkpt>
      <trkpt lat="45.09996" lon="5.60941">
        <ele>1570.800048828</ele>
        <time>2014-01-18T08:45:06Z</time>
      </trkpt>
      <trkpt lat="45.09994" lon="5.60942">
        <ele>1571.199951172</ele>
        <time>2014-01-18T08:45:08Z</time>
      </trkpt>
      <trkpt lat="45.09992" lon="5.60941">
        <ele>1571.599975586</ele>
        <time>2014-01-18T08:45:12Z</time>
      </trkpt>
      <trkpt lat="45.09988" lon="5.60941">
        <ele>1572.400024414</ele>
        <time>2014-01-18T08:45:17Z</time>
      </trkpt>
      <trkpt lat="45.09983" lon="5.60942">
        <ele>1573.400024414</ele>
        <time>2014-01-18T08:45:23Z</time>
      </trkpt>
      <trkpt lat="45.09979" lon="5.60943">
        <ele>1574.400024414</ele>
        <time>2014-01-18T08:45:29Z</time>
      </trkpt>
      <trkpt lat="45.09974" lon="5.60943">
        <ele>1575.400024414</ele>
        <time>2014-01-18T08:45:34Z</time>
      </trkpt>
      <trkpt lat="45.09967" lon="5.60944">
        <ele>1576.800048828</ele>
        <time>2014-01-18T08:45:41Z</time>
      </trkpt>
      <trkpt lat="45.09965" lon="5.60944">
        <ele>1577.199951172</ele>
        <time>2014-01-18T08:45:43Z</time>
      </trkpt>
      <trkpt lat="45.09961" lon="5.60945">
        <ele>1578.199951172</ele>
        <time>2014-01-18T08:45:48Z</time>
      </trkpt>
      <trkpt lat="45.0996" lon="5.60946">
        <ele>1578.400024414</ele>
        <time>2014-01-18T08:45:50Z</time>
      </trkpt>
      <trkpt lat="45.09956" lon="5.60946">
        <ele>1579.199951172</ele>
        <time>2014-01-18T08:45:54Z</time>
      </trkpt>
      <trkpt lat="45.09952" lon="5.60947">
        <ele>1580.199951172</ele>
        <time>2014-01-18T08:46:00Z</time>
      </trkpt>
      <trkpt lat="45.09947" lon="5.60948">
        <ele>1581.199951172</ele>
        <time>2014-01-18T08:46:05Z</time>
      </trkpt>
      <trkpt lat="45.09946" lon="5.60949">
        <ele>1581.599975586</ele>
        <time>2014-01-18T08:46:07Z</time>
      </trkpt>
      <trkpt lat="45.09944" lon="5.60949">
        <ele>1582</ele>
        <time>2014-01-18T08:46:09Z</time>
      </trkpt>
      <trkpt lat="45.09942" lon="5.6095">
        <ele>1582.400024414</ele>
        <time>2014-01-18T08:46:12Z</time>
      </trkpt>
      <trkpt lat="45.09941" lon="5.60951">
        <ele>1582.800048828</ele>
        <time>2014-01-18T08:46:13Z</time>
      </trkpt>
      <trkpt lat="45.09937" lon="5.60952">
        <ele>1583.599975586</ele>
        <time>2014-01-18T08:46:18Z</time>
      </trkpt>
      <trkpt lat="45.09935" lon="5.60952">
        <ele>1583.800048828</ele>
        <time>2014-01-18T08:46:19Z</time>
      </trkpt>
      <trkpt lat="45.09932" lon="5.60951">
        <ele>1584.400024414</ele>
        <time>2014-01-18T08:46:22Z</time>
      </trkpt>
      <trkpt lat="45.09929" lon="5.60952">
        <ele>1585.199951172</ele>
        <time>2014-01-18T08:46:25Z</time>
      </trkpt>
      <trkpt lat="45.09928" lon="5.60952">
        <ele>1585.400024414</ele>
        <time>2014-01-18T08:46:27Z</time>
      </trkpt>
      <trkpt lat="45.09927" lon="5.60953">
        <ele>1585.599975586</ele>
        <time>2014-01-18T08:46:28Z</time>
      </trkpt>
      <trkpt lat="45.09924" lon="5.60954">
        <ele>1586.199951172</ele>
        <time>2014-01-18T08:46:32Z</time>
      </trkpt>
      <trkpt lat="45.0992" lon="5.60956">
        <ele>1587.199951172</ele>
        <time>2014-01-18T08:46:37Z</time>
      </trkpt>
      <trkpt lat="45.09913" lon="5.60958">
        <ele>1588.599975586</ele>
        <time>2014-01-18T08:46:44Z</time>
      </trkpt>
      <trkpt lat="45.09912" lon="5.60961">
        <ele>1589</ele>
        <time>2014-01-18T08:46:48Z</time>
      </trkpt>
      <trkpt lat="45.09913" lon="5.60967">
        <ele>1589.199951172</ele>
        <time>2014-01-18T08:46:53Z</time>
      </trkpt>
      <trkpt lat="45.09916" lon="5.60975">
        <ele>1589.400024414</ele>
        <time>2014-01-18T08:46:59Z</time>
      </trkpt>
      <trkpt lat="45.09917" lon="5.60983">
        <ele>1589.599975586</ele>
        <time>2014-01-18T08:47:05Z</time>
      </trkpt>
      <trkpt lat="45.0992" lon="5.60991">
        <ele>1589.599975586</ele>
        <time>2014-01-18T08:47:11Z</time>
      </trkpt>
      <trkpt lat="45.09923" lon="5.60997">
        <ele>1589.800048828</ele>
        <time>2014-01-18T08:47:16Z</time>
      </trkpt>
      <trkpt lat="45.09923" lon="5.61002">
        <ele>1590.400024414</ele>
        <time>2014-01-18T08:47:20Z</time>
      </trkpt>
      <trkpt lat="45.09922" lon="5.61002">
        <ele>1590.599975586</ele>
        <time>2014-01-18T08:47:21Z</time>
      </trkpt>
      <trkpt lat="45.09922" lon="5.61003">
        <ele>1591</ele>
        <time>2014-01-18T08:47:22Z</time>
      </trkpt>
      <trkpt lat="45.09921" lon="5.61006">
        <ele>1591.800048828</ele>
        <time>2014-01-18T08:47:25Z</time>
      </trkpt>
      <trkpt lat="45.09921" lon="5.61006">
        <ele>1592</ele>
        <time>2014-01-18T08:47:26Z</time>
      </trkpt>
      <trkpt lat="45.09919" lon="5.61009">
        <ele>1593</ele>
        <time>2014-01-18T08:47:31Z</time>
      </trkpt>
      <trkpt lat="45.09919" lon="5.61013">
        <ele>1593.800048828</ele>
        <time>2014-01-18T08:47:37Z</time>
      </trkpt>
      <trkpt lat="45.09921" lon="5.61015">
        <ele>1594</ele>
        <time>2014-01-18T08:47:41Z</time>
      </trkpt>
      <trkpt lat="45.09923" lon="5.6102">
        <ele>1595.199951172</ele>
        <time>2014-01-18T08:47:46Z</time>
      </trkpt>
      <trkpt lat="45.09923" lon="5.61023">
        <ele>1595.800048828</ele>
        <time>2014-01-18T08:47:49Z</time>
      </trkpt>
      <trkpt lat="45.09923" lon="5.61027">
        <ele>1597</ele>
        <time>2014-01-18T08:47:54Z</time>
      </trkpt>
      <trkpt lat="45.09921" lon="5.6103">
        <ele>1598</ele>
        <time>2014-01-18T08:47:58Z</time>
      </trkpt>
      <trkpt lat="45.09918" lon="5.61033">
        <ele>1599</ele>
        <time>2014-01-18T08:48:02Z</time>
      </trkpt>
      <trkpt lat="45.09914" lon="5.61038">
        <ele>1600.800048828</ele>
        <time>2014-01-18T08:48:08Z</time>
      </trkpt>
      <trkpt lat="45.09911" lon="5.6104">
        <ele>1601.800048828</ele>
        <time>2014-01-18T08:48:13Z</time>
      </trkpt>
      <trkpt lat="45.0991" lon="5.61043">
        <ele>1602.800048828</ele>
        <time>2014-01-18T08:48:19Z</time>
      </trkpt>
      <trkpt lat="45.09908" lon="5.61045">
        <ele>1603.400024414</ele>
        <time>2014-01-18T08:48:22Z</time>
      </trkpt>
      <trkpt lat="45.09905" lon="5.61046">
        <ele>1604.199951172</ele>
        <time>2014-01-18T08:48:26Z</time>
      </trkpt>
      <trkpt lat="45.09902" lon="5.6105">
        <ele>1605.800048828</ele>
        <time>2014-01-18T08:48:33Z</time>
      </trkpt>
      <trkpt lat="45.099" lon="5.61055">
        <ele>1607</ele>
        <time>2014-01-18T08:48:38Z</time>
      </trkpt>
      <trkpt lat="45.09897" lon="5.61057">
        <ele>1608</ele>
        <time>2014-01-18T08:48:43Z</time>
      </trkpt>
      <trkpt lat="45.09895" lon="5.61059">
        <ele>1608.800048828</ele>
        <time>2014-01-18T08:48:49Z</time>
      </trkpt>
      <trkpt lat="45.09891" lon="5.6106">
        <ele>1609.800048828</ele>
        <time>2014-01-18T08:48:55Z</time>
      </trkpt>
      <trkpt lat="45.09888" lon="5.6106">
        <ele>1610</ele>
        <time>2014-01-18T08:49:00Z</time>
      </trkpt>
      <trkpt lat="45.09885" lon="5.6106">
        <ele>1610.400024414</ele>
        <time>2014-01-18T08:49:06Z</time>
      </trkpt>
      <trkpt lat="45.09882" lon="5.61062">
        <ele>1611.199951172</ele>
        <time>2014-01-18T08:49:12Z</time>
      </trkpt>
      <trkpt lat="45.0988" lon="5.61062">
        <ele>1611.599975586</ele>
        <time>2014-01-18T08:49:17Z</time>
      </trkpt>
      <trkpt lat="45.0988" lon="5.61062">
        <ele>1611.599975586</ele>
        <time>2014-01-18T08:49:20Z</time>
      </trkpt>
      <trkpt lat="45.09882" lon="5.61066">
        <ele>1612.199951172</ele>
        <time>2014-01-18T08:49:26Z</time>
      </trkpt>
      <trkpt lat="45.09882" lon="5.61069">
        <ele>1613.199951172</ele>
        <time>2014-01-18T08:49:31Z</time>
      </trkpt>
      <trkpt lat="45.09882" lon="5.61072">
        <ele>1613.800048828</ele>
        <time>2014-01-18T08:49:35Z</time>
      </trkpt>
      <trkpt lat="45.09879" lon="5.61074">
        <ele>1614.599975586</ele>
        <time>2014-01-18T08:49:39Z</time>
      </trkpt>
      <trkpt lat="45.09876" lon="5.61074">
        <ele>1615.199951172</ele>
        <time>2014-01-18T08:49:45Z</time>
      </trkpt>
      <trkpt lat="45.09873" lon="5.61075">
        <ele>1615.800048828</ele>
        <time>2014-01-18T08:49:51Z</time>
      </trkpt>
      <trkpt lat="45.09871" lon="5.61076">
        <ele>1616.400024414</ele>
        <time>2014-01-18T08:49:55Z</time>
      </trkpt>
      <trkpt lat="45.0987" lon="5.61078">
        <ele>1616.800048828</ele>
        <time>2014-01-18T08:49:59Z</time>
      </trkpt>
      <trkpt lat="45.0987" lon="5.6108">
        <ele>1617.400024414</ele>
        <time>2014-01-18T08:50:03Z</time>
      </trkpt>
      <trkpt lat="45.09871" lon="5.61082">
        <ele>1617.800048828</ele>
        <time>2014-01-18T08:50:07Z</time>
      </trkpt>
      <trkpt lat="45.09872" lon="5.61083">
        <ele>1617.800048828</ele>
        <time>2014-01-18T08:50:12Z</time>
      </trkpt>
      <trkpt lat="45.09875" lon="5.61085">
        <ele>1618.199951172</ele>
        <time>2014-01-18T08:50:17Z</time>
      </trkpt>
      <trkpt lat="45.09877" lon="5.61087">
        <ele>1618.599975586</ele>
        <time>2014-01-18T08:50:21Z</time>
      </trkpt>
      <trkpt lat="45.09877" lon="5.61091">
        <ele>1619.599975586</ele>
        <time>2014-01-18T08:50:26Z</time>
      </trkpt>
      <trkpt lat="45.09875" lon="5.61093">
        <ele>1620.599975586</ele>
        <time>2014-01-18T08:50:31Z</time>
      </trkpt>
      <trkpt lat="45.09872" lon="5.61096">
        <ele>1622</ele>
        <time>2014-01-18T08:50:37Z</time>
      </trkpt>
      <trkpt lat="45.0987" lon="5.61098">
        <ele>1623</ele>
        <time>2014-01-18T08:50:42Z</time>
      </trkpt>
      <trkpt lat="45.09867" lon="5.611">
        <ele>1624</ele>
        <time>2014-01-18T08:50:47Z</time>
      </trkpt>
      <trkpt lat="45.09865" lon="5.61101">
        <ele>1624.599975586</ele>
        <time>2014-01-18T08:50:52Z</time>
      </trkpt>
      <trkpt lat="45.09861" lon="5.61104">
        <ele>1626</ele>
        <time>2014-01-18T08:50:59Z</time>
      </trkpt>
      <trkpt lat="45.09862" lon="5.61104">
        <ele>1626.199951172</ele>
        <time>2014-01-18T08:51:06Z</time>
      </trkpt>
      <trkpt lat="45.09863" lon="5.61105">
        <ele>1626.400024414</ele>
        <time>2014-01-18T08:51:10Z</time>
      </trkpt>
      <trkpt lat="45.09865" lon="5.61107">
        <ele>1626.800048828</ele>
        <time>2014-01-18T08:51:14Z</time>
      </trkpt>
      <trkpt lat="45.09863" lon="5.61109">
        <ele>1627.599975586</ele>
        <time>2014-01-18T08:51:20Z</time>
      </trkpt>
      <trkpt lat="45.09859" lon="5.61111">
        <ele>1628.800048828</ele>
        <time>2014-01-18T08:51:27Z</time>
      </trkpt>
      <trkpt lat="45.09856" lon="5.61113">
        <ele>1630</ele>
        <time>2014-01-18T08:51:32Z</time>
      </trkpt>
      <trkpt lat="45.09853" lon="5.61117">
        <ele>1631.599975586</ele>
        <time>2014-01-18T08:51:38Z</time>
      </trkpt>
      <trkpt lat="45.0985" lon="5.61119">
        <ele>1632.599975586</ele>
        <time>2014-01-18T08:51:43Z</time>
      </trkpt>
      <trkpt lat="45.09848" lon="5.61119">
        <ele>1632.800048828</ele>
        <time>2014-01-18T08:51:49Z</time>
      </trkpt>
      <trkpt lat="45.09845" lon="5.61121">
        <ele>1634</ele>
        <time>2014-01-18T08:51:55Z</time>
      </trkpt>
      <trkpt lat="45.09842" lon="5.61122">
        <ele>1634.599975586</ele>
        <time>2014-01-18T08:52:01Z</time>
      </trkpt>
      <trkpt lat="45.09844" lon="5.61125">
        <ele>1635.599975586</ele>
        <time>2014-01-18T08:52:06Z</time>
      </trkpt>
      <trkpt lat="45.09846" lon="5.61127">
        <ele>1636</ele>
        <time>2014-01-18T08:52:11Z</time>
      </trkpt>
      <trkpt lat="45.09848" lon="5.61129">
        <ele>1636.199951172</ele>
        <time>2014-01-18T08:52:15Z</time>
      </trkpt>
      <trkpt lat="45.0985" lon="5.61131">
        <ele>1636.599975586</ele>
        <time>2014-01-18T08:52:20Z</time>
      </trkpt>
      <trkpt lat="45.09851" lon="5.61133">
        <ele>1637.400024414</ele>
        <time>2014-01-18T08:52:24Z</time>
      </trkpt>
      <trkpt lat="45.09853" lon="5.61136">
        <ele>1638.199951172</ele>
        <time>2014-01-18T08:52:29Z</time>
      </trkpt>
      <trkpt lat="45.09855" lon="5.6114">
        <ele>1639</ele>
        <time>2014-01-18T08:52:33Z</time>
      </trkpt>
      <trkpt lat="45.09857" lon="5.6114">
        <ele>1638.800048828</ele>
        <time>2014-01-18T08:52:36Z</time>
      </trkpt>
      <trkpt lat="45.09858" lon="5.61141">
        <ele>1639</ele>
        <time>2014-01-18T08:52:40Z</time>
      </trkpt>
      <trkpt lat="45.09862" lon="5.61146">
        <ele>1640</ele>
        <time>2014-01-18T08:52:45Z</time>
      </trkpt>
      <trkpt lat="45.09867" lon="5.61151">
        <ele>1641</ele>
        <time>2014-01-18T08:52:52Z</time>
      </trkpt>
      <trkpt lat="45.09868" lon="5.61152">
        <ele>1641</ele>
        <time>2014-01-18T08:52:54Z</time>
      </trkpt>
      <trkpt lat="45.09868" lon="5.61153">
        <ele>1641.400024414</ele>
        <time>2014-01-18T08:52:56Z</time>
      </trkpt>
      <trkpt lat="45.09871" lon="5.61155">
        <ele>1641.800048828</ele>
        <time>2014-01-18T08:53:00Z</time>
      </trkpt>
      <trkpt lat="45.09873" lon="5.61157">
        <ele>1642.199951172</ele>
        <time>2014-01-18T08:53:04Z</time>
      </trkpt>
      <trkpt lat="45.09875" lon="5.61159">
        <ele>1642.599975586</ele>
        <time>2014-01-18T08:53:08Z</time>
      </trkpt>
      <trkpt lat="45.09877" lon="5.61163">
        <ele>1643.599975586</ele>
        <time>2014-01-18T08:53:13Z</time>
      </trkpt>
      <trkpt lat="45.09878" lon="5.61164">
        <ele>1643.599975586</ele>
        <time>2014-01-18T08:53:16Z</time>
      </trkpt>
      <trkpt lat="45.09881" lon="5.61167">
        <ele>1644.199951172</ele>
        <time>2014-01-18T08:53:20Z</time>
      </trkpt>
      <trkpt lat="45.09882" lon="5.61169">
        <ele>1644.599975586</ele>
        <time>2014-01-18T08:53:24Z</time>
      </trkpt>
      <trkpt lat="45.09883" lon="5.6117">
        <ele>1645</ele>
        <time>2014-01-18T08:53:28Z</time>
      </trkpt>
      <trkpt lat="45.09885" lon="5.61173">
        <ele>1645.400024414</ele>
        <time>2014-01-18T08:53:32Z</time>
      </trkpt>
      <trkpt lat="45.09886" lon="5.61176">
        <ele>1646.400024414</ele>
        <time>2014-01-18T08:53:38Z</time>
      </trkpt>
      <trkpt lat="45.09883" lon="5.61178">
        <ele>1647.599975586</ele>
        <time>2014-01-18T08:53:43Z</time>
      </trkpt>
      <trkpt lat="45.09879" lon="5.6118">
        <ele>1648.400024414</ele>
        <time>2014-01-18T08:53:48Z</time>
      </trkpt>
      <trkpt lat="45.09878" lon="5.61181">
        <ele>1649.199951172</ele>
        <time>2014-01-18T08:53:53Z</time>
      </trkpt>
      <trkpt lat="45.09876" lon="5.61184">
        <ele>1650.400024414</ele>
        <time>2014-01-18T08:53:57Z</time>
      </trkpt>
      <trkpt lat="45.09874" lon="5.61187">
        <ele>1651.400024414</ele>
        <time>2014-01-18T08:54:02Z</time>
      </trkpt>
      <trkpt lat="45.09872" lon="5.61188">
        <ele>1652.199951172</ele>
        <time>2014-01-18T08:54:06Z</time>
      </trkpt>
      <trkpt lat="45.09869" lon="5.61191">
        <ele>1653.400024414</ele>
        <time>2014-01-18T08:54:12Z</time>
      </trkpt>
      <trkpt lat="45.09867" lon="5.61193">
        <ele>1654.199951172</ele>
        <time>2014-01-18T08:54:17Z</time>
      </trkpt>
      <trkpt lat="45.09865" lon="5.61194">
        <ele>1654.800048828</ele>
        <time>2014-01-18T08:54:21Z</time>
      </trkpt>
      <trkpt lat="45.09864" lon="5.61195">
        <ele>1655.199951172</ele>
        <time>2014-01-18T08:54:25Z</time>
      </trkpt>
      <trkpt lat="45.09861" lon="5.61197">
        <ele>1656.400024414</ele>
        <time>2014-01-18T08:54:33Z</time>
      </trkpt>
      <trkpt lat="45.09858" lon="5.61198">
        <ele>1657</ele>
        <time>2014-01-18T08:54:37Z</time>
      </trkpt>
      <trkpt lat="45.09855" lon="5.61199">
        <ele>1657.800048828</ele>
        <time>2014-01-18T08:54:43Z</time>
      </trkpt>
      <trkpt lat="45.09851" lon="5.61201">
        <ele>1659</ele>
        <time>2014-01-18T08:54:49Z</time>
      </trkpt>
      <trkpt lat="45.0985" lon="5.61201">
        <ele>1659.199951172</ele>
        <time>2014-01-18T08:54:53Z</time>
      </trkpt>
      <trkpt lat="45.09851" lon="5.61203">
        <ele>1659.400024414</ele>
        <time>2014-01-18T08:54:57Z</time>
      </trkpt>
      <trkpt lat="45.09852" lon="5.61205">
        <ele>1660</ele>
        <time>2014-01-18T08:55:03Z</time>
      </trkpt>
      <trkpt lat="45.09858" lon="5.61206">
        <ele>1659.599975586</ele>
        <time>2014-01-18T08:56:11Z</time>
      </trkpt>
      <trkpt lat="45.09859" lon="5.6121">
        <ele>1660.800048828</ele>
        <time>2014-01-18T08:56:15Z</time>
      </trkpt>
      <trkpt lat="45.0986" lon="5.61215">
        <ele>1662.199951172</ele>
        <time>2014-01-18T08:56:20Z</time>
      </trkpt>
      <trkpt lat="45.09862" lon="5.61219">
        <ele>1662.800048828</ele>
        <time>2014-01-18T08:56:25Z</time>
      </trkpt>
      <trkpt lat="45.09864" lon="5.61221">
        <ele>1663.599975586</ele>
        <time>2014-01-18T08:56:29Z</time>
      </trkpt>
      <trkpt lat="45.09866" lon="5.61225">
        <ele>1664.400024414</ele>
        <time>2014-01-18T08:56:33Z</time>
      </trkpt>
      <trkpt lat="45.09866" lon="5.61227">
        <ele>1665</ele>
        <time>2014-01-18T08:56:36Z</time>
      </trkpt>
      <trkpt lat="45.09868" lon="5.6123">
        <ele>1665.800048828</ele>
        <time>2014-01-18T08:56:40Z</time>
      </trkpt>
      <trkpt lat="45.09869" lon="5.61234">
        <ele>1666.599975586</ele>
        <time>2014-01-18T08:56:44Z</time>
      </trkpt>
      <trkpt lat="45.09871" lon="5.61234">
        <ele>1666.599975586</ele>
        <time>2014-01-18T08:56:49Z</time>
      </trkpt>
      <trkpt lat="45.0987" lon="5.61239">
        <ele>1668.199951172</ele>
        <time>2014-01-18T08:56:56Z</time>
      </trkpt>
      <trkpt lat="45.09869" lon="5.61243">
        <ele>1669.400024414</ele>
        <time>2014-01-18T08:57:01Z</time>
      </trkpt>
      <trkpt lat="45.09868" lon="5.61246">
        <ele>1670.599975586</ele>
        <time>2014-01-18T08:57:05Z</time>
      </trkpt>
      <trkpt lat="45.09868" lon="5.6125">
        <ele>1671.599975586</ele>
        <time>2014-01-18T08:57:09Z</time>
      </trkpt>
      <trkpt lat="45.09869" lon="5.61256">
        <ele>1673.199951172</ele>
        <time>2014-01-18T08:57:17Z</time>
      </trkpt>
      <trkpt lat="45.09873" lon="5.61261">
        <ele>1674</ele>
        <time>2014-01-18T08:57:24Z</time>
      </trkpt>
      <trkpt lat="45.09876" lon="5.61264">
        <ele>1674.400024414</ele>
        <time>2014-01-18T08:57:30Z</time>
      </trkpt>
      <trkpt lat="45.09878" lon="5.61265">
        <ele>1674.599975586</ele>
        <time>2014-01-18T08:57:34Z</time>
      </trkpt>
      <trkpt lat="45.0988" lon="5.6127">
        <ele>1675.400024414</ele>
        <time>2014-01-18T08:57:41Z</time>
      </trkpt>
      <trkpt lat="45.09881" lon="5.61274">
        <ele>1676.199951172</ele>
        <time>2014-01-18T08:57:45Z</time>
      </trkpt>
      <trkpt lat="45.09882" lon="5.61274">
        <ele>1676.199951172</ele>
        <time>2014-01-18T08:57:46Z</time>
      </trkpt>
      <trkpt lat="45.09884" lon="5.61277">
        <ele>1676.800048828</ele>
        <time>2014-01-18T08:57:50Z</time>
      </trkpt>
      <trkpt lat="45.09886" lon="5.61283">
        <ele>1678</ele>
        <time>2014-01-18T08:57:55Z</time>
      </trkpt>
      <trkpt lat="45.09887" lon="5.61291">
        <ele>1679.800048828</ele>
        <time>2014-01-18T08:58:02Z</time>
      </trkpt>
      <trkpt lat="45.09887" lon="5.61291">
        <ele>1680</ele>
        <time>2014-01-18T08:58:03Z</time>
      </trkpt>
      <trkpt lat="45.09886" lon="5.61296">
        <ele>1681.400024414</ele>
        <time>2014-01-18T08:58:10Z</time>
      </trkpt>
      <trkpt lat="45.09884" lon="5.61305">
        <ele>1683.800048828</ele>
        <time>2014-01-18T08:58:17Z</time>
      </trkpt>
      <trkpt lat="45.09885" lon="5.61314">
        <ele>1686</ele>
        <time>2014-01-18T08:58:23Z</time>
      </trkpt>
      <trkpt lat="45.09886" lon="5.61318">
        <ele>1687</ele>
        <time>2014-01-18T08:58:27Z</time>
      </trkpt>
      <trkpt lat="45.09887" lon="5.61326">
        <ele>1688.599975586</ele>
        <time>2014-01-18T08:58:34Z</time>
      </trkpt>
      <trkpt lat="45.09888" lon="5.61334">
        <ele>1690.599975586</ele>
        <time>2014-01-18T08:58:40Z</time>
      </trkpt>
      <trkpt lat="45.09889" lon="5.61341">
        <ele>1692.400024414</ele>
        <time>2014-01-18T08:58:46Z</time>
      </trkpt>
      <trkpt lat="45.0989" lon="5.61346">
        <ele>1693.599975586</ele>
        <time>2014-01-18T08:58:51Z</time>
      </trkpt>
      <trkpt lat="45.09892" lon="5.61349">
        <ele>1694.199951172</ele>
        <time>2014-01-18T08:58:55Z</time>
      </trkpt>
      <trkpt lat="45.09894" lon="5.61352">
        <ele>1694.599975586</ele>
        <time>2014-01-18T08:58:59Z</time>
      </trkpt>
      <trkpt lat="45.09896" lon="5.61354">
        <ele>1695</ele>
        <time>2014-01-18T08:59:02Z</time>
      </trkpt>
      <trkpt lat="45.09899" lon="5.61359">
        <ele>1696</ele>
        <time>2014-01-18T08:59:08Z</time>
      </trkpt>
      <trkpt lat="45.09901" lon="5.61363">
        <ele>1697.199951172</ele>
        <time>2014-01-18T08:59:14Z</time>
      </trkpt>
      <trkpt lat="45.09903" lon="5.61367">
        <ele>1697.800048828</ele>
        <time>2014-01-18T08:59:19Z</time>
      </trkpt>
      <trkpt lat="45.09904" lon="5.6137">
        <ele>1698.599975586</ele>
        <time>2014-01-18T08:59:23Z</time>
      </trkpt>
      <trkpt lat="45.09906" lon="5.61378">
        <ele>1700.800048828</ele>
        <time>2014-01-18T08:59:32Z</time>
      </trkpt>
      <trkpt lat="45.09903" lon="5.61382">
        <ele>1702.199951172</ele>
        <time>2014-01-18T08:59:36Z</time>
      </trkpt>
      <trkpt lat="45.099" lon="5.61386">
        <ele>1703.400024414</ele>
        <time>2014-01-18T08:59:41Z</time>
      </trkpt>
      <trkpt lat="45.099" lon="5.6139">
        <ele>1704.400024414</ele>
        <time>2014-01-18T08:59:47Z</time>
      </trkpt>
      <trkpt lat="45.09903" lon="5.61393">
        <ele>1705.199951172</ele>
        <time>2014-01-18T08:59:52Z</time>
      </trkpt>
      <trkpt lat="45.09908" lon="5.61397">
        <ele>1706</ele>
        <time>2014-01-18T08:59:58Z</time>
      </trkpt>
      <trkpt lat="45.09912" lon="5.61401">
        <ele>1706.800048828</ele>
        <time>2014-01-18T09:00:04Z</time>
      </trkpt>
      <trkpt lat="45.09917" lon="5.61405">
        <ele>1707.599975586</ele>
        <time>2014-01-18T09:00:10Z</time>
      </trkpt>
      <trkpt lat="45.09921" lon="5.61408">
        <ele>1708.199951172</ele>
        <time>2014-01-18T09:00:15Z</time>
      </trkpt>
      <trkpt lat="45.09921" lon="5.61409">
        <ele>1708.599975586</ele>
        <time>2014-01-18T09:00:16Z</time>
      </trkpt>
      <trkpt lat="45.09924" lon="5.61412">
        <ele>1709</ele>
        <time>2014-01-18T09:00:20Z</time>
      </trkpt>
      <trkpt lat="45.09925" lon="5.61412">
        <ele>1709.199951172</ele>
        <time>2014-01-18T09:00:21Z</time>
      </trkpt>
      <trkpt lat="45.09929" lon="5.61415">
        <ele>1709.599975586</ele>
        <time>2014-01-18T09:00:26Z</time>
      </trkpt>
      <trkpt lat="45.09933" lon="5.61417">
        <ele>1710.199951172</ele>
        <time>2014-01-18T09:00:32Z</time>
      </trkpt>
      <trkpt lat="45.09937" lon="5.6142">
        <ele>1710.800048828</ele>
        <time>2014-01-18T09:00:37Z</time>
      </trkpt>
      <trkpt lat="45.09942" lon="5.61423">
        <ele>1711.599975586</ele>
        <time>2014-01-18T09:00:43Z</time>
      </trkpt>
      <trkpt lat="45.09945" lon="5.61426">
        <ele>1712.400024414</ele>
        <time>2014-01-18T09:00:49Z</time>
      </trkpt>
      <trkpt lat="45.09949" lon="5.61429">
        <ele>1713</ele>
        <time>2014-01-18T09:00:54Z</time>
      </trkpt>
      <trkpt lat="45.09953" lon="5.61432">
        <ele>1714</ele>
        <time>2014-01-18T09:01:00Z</time>
      </trkpt>
      <trkpt lat="45.09957" lon="5.61435">
        <ele>1714.800048828</ele>
        <time>2014-01-18T09:01:07Z</time>
      </trkpt>
      <trkpt lat="45.09962" lon="5.6144">
        <ele>1715.800048828</ele>
        <time>2014-01-18T09:01:13Z</time>
      </trkpt>
      <trkpt lat="45.09965" lon="5.61442">
        <ele>1716.400024414</ele>
        <time>2014-01-18T09:01:17Z</time>
      </trkpt>
      <trkpt lat="45.09966" lon="5.61443">
        <ele>1716.599975586</ele>
        <time>2014-01-18T09:01:20Z</time>
      </trkpt>
      <trkpt lat="45.0997" lon="5.61444">
        <ele>1717</ele>
        <time>2014-01-18T09:01:26Z</time>
      </trkpt>
      <trkpt lat="45.09974" lon="5.61448">
        <ele>1717.800048828</ele>
        <time>2014-01-18T09:01:32Z</time>
      </trkpt>
      <trkpt lat="45.09978" lon="5.61451">
        <ele>1718.400024414</ele>
        <time>2014-01-18T09:01:38Z</time>
      </trkpt>
      <trkpt lat="45.09982" lon="5.61454">
        <ele>1719.400024414</ele>
        <time>2014-01-18T09:01:44Z</time>
      </trkpt>
      <trkpt lat="45.09986" lon="5.61458">
        <ele>1720.400024414</ele>
        <time>2014-01-18T09:01:50Z</time>
      </trkpt>
      <trkpt lat="45.09987" lon="5.61459">
        <ele>1720.599975586</ele>
        <time>2014-01-18T09:01:51Z</time>
      </trkpt>
      <trkpt lat="45.09992" lon="5.61463">
        <ele>1721.599975586</ele>
        <time>2014-01-18T09:01:59Z</time>
      </trkpt>
      <trkpt lat="45.09997" lon="5.61469">
        <ele>1723.199951172</ele>
        <time>2014-01-18T09:02:06Z</time>
      </trkpt>
      <trkpt lat="45.10001" lon="5.61474">
        <ele>1724.400024414</ele>
        <time>2014-01-18T09:02:12Z</time>
      </trkpt>
      <trkpt lat="45.10005" lon="5.61478">
        <ele>1725.400024414</ele>
        <time>2014-01-18T09:02:18Z</time>
      </trkpt>
      <trkpt lat="45.10009" lon="5.61483">
        <ele>1726.400024414</ele>
        <time>2014-01-18T09:02:27Z</time>
      </trkpt>
      <trkpt lat="45.10013" lon="5.61486">
        <ele>1726.599975586</ele>
        <time>2014-01-18T09:02:33Z</time>
      </trkpt>
      <trkpt lat="45.10015" lon="5.61489">
        <ele>1727.199951172</ele>
        <time>2014-01-18T09:02:37Z</time>
      </trkpt>
      <trkpt lat="45.10018" lon="5.61494">
        <ele>1728.599975586</ele>
        <time>2014-01-18T09:02:43Z</time>
      </trkpt>
      <trkpt lat="45.10021" lon="5.61497">
        <ele>1729.400024414</ele>
        <time>2014-01-18T09:02:49Z</time>
      </trkpt>
      <trkpt lat="45.10023" lon="5.61501">
        <ele>1730.199951172</ele>
        <time>2014-01-18T09:02:55Z</time>
      </trkpt>
      <trkpt lat="45.10026" lon="5.61504">
        <ele>1731</ele>
        <time>2014-01-18T09:03:01Z</time>
      </trkpt>
      <trkpt lat="45.10028" lon="5.61508">
        <ele>1732</ele>
        <time>2014-01-18T09:03:05Z</time>
      </trkpt>
      <trkpt lat="45.10029" lon="5.61512">
        <ele>1733.199951172</ele>
        <time>2014-01-18T09:03:11Z</time>
      </trkpt>
      <trkpt lat="45.1003" lon="5.61515">
        <ele>1733.800048828</ele>
        <time>2014-01-18T09:03:14Z</time>
      </trkpt>
      <trkpt lat="45.10032" lon="5.61521">
        <ele>1735.400024414</ele>
        <time>2014-01-18T09:03:21Z</time>
      </trkpt>
      <trkpt lat="45.10034" lon="5.61524">
        <ele>1736.400024414</ele>
        <time>2014-01-18T09:03:26Z</time>
      </trkpt>
      <trkpt lat="45.10036" lon="5.61528">
        <ele>1737.400024414</ele>
        <time>2014-01-18T09:03:32Z</time>
      </trkpt>
      <trkpt lat="45.10037" lon="5.61531">
        <ele>1738.400024414</ele>
        <time>2014-01-18T09:03:36Z</time>
      </trkpt>
      <trkpt lat="45.10037" lon="5.61534">
        <ele>1739.199951172</ele>
        <time>2014-01-18T09:03:40Z</time>
      </trkpt>
      <trkpt lat="45.10039" lon="5.61537">
        <ele>1739.800048828</ele>
        <time>2014-01-18T09:03:44Z</time>
      </trkpt>
      <trkpt lat="45.1004" lon="5.61539">
        <ele>1740.400024414</ele>
        <time>2014-01-18T09:03:48Z</time>
      </trkpt>
      <trkpt lat="45.10041" lon="5.61542">
        <ele>1741.400024414</ele>
        <time>2014-01-18T09:03:52Z</time>
      </trkpt>
      <trkpt lat="45.10042" lon="5.61545">
        <ele>1742.199951172</ele>
        <time>2014-01-18T09:03:56Z</time>
      </trkpt>
      <trkpt lat="45.10044" lon="5.61549">
        <ele>1743.199951172</ele>
        <time>2014-01-18T09:04:01Z</time>
      </trkpt>
      <trkpt lat="45.10047" lon="5.61555">
        <ele>1744.800048828</ele>
        <time>2014-01-18T09:04:10Z</time>
      </trkpt>
      <trkpt lat="45.10049" lon="5.61559">
        <ele>1745.599975586</ele>
        <time>2014-01-18T09:04:14Z</time>
      </trkpt>
      <trkpt lat="45.10053" lon="5.61565">
        <ele>1747</ele>
        <time>2014-01-18T09:04:22Z</time>
      </trkpt>
      <trkpt lat="45.10056" lon="5.61568">
        <ele>1747.599975586</ele>
        <time>2014-01-18T09:04:26Z</time>
      </trkpt>
      <trkpt lat="45.1006" lon="5.61573">
        <ele>1748.800048828</ele>
        <time>2014-01-18T09:04:34Z</time>
      </trkpt>
      <trkpt lat="45.10061" lon="5.61575">
        <ele>1749</ele>
        <time>2014-01-18T09:04:38Z</time>
      </trkpt>
      <trkpt lat="45.10063" lon="5.61577">
        <ele>1749.800048828</ele>
        <time>2014-01-18T09:04:45Z</time>
      </trkpt>
      <trkpt lat="45.10066" lon="5.61583">
        <ele>1751.199951172</ele>
        <time>2014-01-18T09:04:54Z</time>
      </trkpt>
      <trkpt lat="45.10069" lon="5.6159">
        <ele>1752.800048828</ele>
        <time>2014-01-18T09:05:01Z</time>
      </trkpt>
      <trkpt lat="45.10072" lon="5.61593">
        <ele>1753.400024414</ele>
        <time>2014-01-18T09:05:05Z</time>
      </trkpt>
      <trkpt lat="45.10074" lon="5.61597">
        <ele>1754.400024414</ele>
        <time>2014-01-18T09:05:10Z</time>
      </trkpt>
      <trkpt lat="45.10077" lon="5.61601">
        <ele>1755</ele>
        <time>2014-01-18T09:05:15Z</time>
      </trkpt>
      <trkpt lat="45.1008" lon="5.61606">
        <ele>1756.400024414</ele>
        <time>2014-01-18T09:05:22Z</time>
      </trkpt>
      <trkpt lat="45.10081" lon="5.61609">
        <ele>1756.800048828</ele>
        <time>2014-01-18T09:05:26Z</time>
      </trkpt>
      <trkpt lat="45.10085" lon="5.61614">
        <ele>1757.800048828</ele>
        <time>2014-01-18T09:05:33Z</time>
      </trkpt>
      <trkpt lat="45.10087" lon="5.61617">
        <ele>1758.400024414</ele>
        <time>2014-01-18T09:05:37Z</time>
      </trkpt>
      <trkpt lat="45.1009" lon="5.6162">
        <ele>1758.800048828</ele>
        <time>2014-01-18T09:05:42Z</time>
      </trkpt>
      <trkpt lat="45.10093" lon="5.61626">
        <ele>1760</ele>
        <time>2014-01-18T09:05:48Z</time>
      </trkpt>
      <trkpt lat="45.10095" lon="5.61629">
        <ele>1760.800048828</ele>
        <time>2014-01-18T09:05:53Z</time>
      </trkpt>
      <trkpt lat="45.10098" lon="5.61635">
        <ele>1762</ele>
        <time>2014-01-18T09:05:59Z</time>
      </trkpt>
      <trkpt lat="45.10099" lon="5.61637">
        <ele>1762.400024414</ele>
        <time>2014-01-18T09:06:03Z</time>
      </trkpt>
      <trkpt lat="45.10101" lon="5.61644">
        <ele>1764.199951172</ele>
        <time>2014-01-18T09:06:08Z</time>
      </trkpt>
      <trkpt lat="45.10102" lon="5.61647">
        <ele>1765</ele>
        <time>2014-01-18T09:06:11Z</time>
      </trkpt>
      <trkpt lat="45.10104" lon="5.61654">
        <ele>1766.599975586</ele>
        <time>2014-01-18T09:06:17Z</time>
      </trkpt>
      <trkpt lat="45.10107" lon="5.61662">
        <ele>1768.599975586</ele>
        <time>2014-01-18T09:06:24Z</time>
      </trkpt>
      <trkpt lat="45.1011" lon="5.61668">
        <ele>1770</ele>
        <time>2014-01-18T09:06:30Z</time>
      </trkpt>
      <trkpt lat="45.10115" lon="5.61674">
        <ele>1771.400024414</ele>
        <time>2014-01-18T09:06:37Z</time>
      </trkpt>
      <trkpt lat="45.10117" lon="5.61677">
        <ele>1772.199951172</ele>
        <time>2014-01-18T09:06:41Z</time>
      </trkpt>
      <trkpt lat="45.1012" lon="5.61683">
        <ele>1773.800048828</ele>
        <time>2014-01-18T09:06:48Z</time>
      </trkpt>
      <trkpt lat="45.10124" lon="5.61688">
        <ele>1775.199951172</ele>
        <time>2014-01-18T09:06:56Z</time>
      </trkpt>
      <trkpt lat="45.10126" lon="5.61691">
        <ele>1776</ele>
        <time>2014-01-18T09:07:00Z</time>
      </trkpt>
      <trkpt lat="45.10128" lon="5.61694">
        <ele>1776.599975586</ele>
        <time>2014-01-18T09:07:04Z</time>
      </trkpt>
      <trkpt lat="45.1013" lon="5.61697">
        <ele>1777.599975586</ele>
        <time>2014-01-18T09:07:10Z</time>
      </trkpt>
      <trkpt lat="45.10133" lon="5.61701">
        <ele>1778.599975586</ele>
        <time>2014-01-18T09:07:15Z</time>
      </trkpt>
      <trkpt lat="45.10134" lon="5.61703">
        <ele>1779</ele>
        <time>2014-01-18T09:07:19Z</time>
      </trkpt>
      <trkpt lat="45.10136" lon="5.61705">
        <ele>1779.199951172</ele>
        <time>2014-01-18T09:07:23Z</time>
      </trkpt>
      <trkpt lat="45.10138" lon="5.61708">
        <ele>1780</ele>
        <time>2014-01-18T09:07:28Z</time>
      </trkpt>
      <trkpt lat="45.10142" lon="5.61713">
        <ele>1781.199951172</ele>
        <time>2014-01-18T09:07:34Z</time>
      </trkpt>
      <trkpt lat="45.10146" lon="5.61718">
        <ele>1782.800048828</ele>
        <time>2014-01-18T09:07:42Z</time>
      </trkpt>
      <trkpt lat="45.10147" lon="5.61721">
        <ele>1783.400024414</ele>
        <time>2014-01-18T09:07:46Z</time>
      </trkpt>
      <trkpt lat="45.10149" lon="5.61724">
        <ele>1784.199951172</ele>
        <time>2014-01-18T09:07:50Z</time>
      </trkpt>
      <trkpt lat="45.10151" lon="5.61726">
        <ele>1784.800048828</ele>
        <time>2014-01-18T09:07:54Z</time>
      </trkpt>
      <trkpt lat="45.10154" lon="5.61731">
        <ele>1785.800048828</ele>
        <time>2014-01-18T09:08:00Z</time>
      </trkpt>
      <trkpt lat="45.10157" lon="5.61734">
        <ele>1786.800048828</ele>
        <time>2014-01-18T09:08:06Z</time>
      </trkpt>
      <trkpt lat="45.10159" lon="5.61737">
        <ele>1787.199951172</ele>
        <time>2014-01-18T09:08:10Z</time>
      </trkpt>
      <trkpt lat="45.10161" lon="5.61739">
        <ele>1787.800048828</ele>
        <time>2014-01-18T09:08:14Z</time>
      </trkpt>
      <trkpt lat="45.10163" lon="5.61741">
        <ele>1788.400024414</ele>
        <time>2014-01-18T09:08:18Z</time>
      </trkpt>
      <trkpt lat="45.10166" lon="5.61747">
        <ele>1789.800048828</ele>
        <time>2014-01-18T09:08:25Z</time>
      </trkpt>
      <trkpt lat="45.10169" lon="5.6175">
        <ele>1790.599975586</ele>
        <time>2014-01-18T09:08:30Z</time>
      </trkpt>
      <trkpt lat="45.10171" lon="5.61754">
        <ele>1791.599975586</ele>
        <time>2014-01-18T09:08:35Z</time>
      </trkpt>
      <trkpt lat="45.10174" lon="5.61757">
        <ele>1792.599975586</ele>
        <time>2014-01-18T09:08:40Z</time>
      </trkpt>
      <trkpt lat="45.10177" lon="5.61762">
        <ele>1794</ele>
        <time>2014-01-18T09:08:47Z</time>
      </trkpt>
      <trkpt lat="45.10181" lon="5.61766">
        <ele>1795</ele>
        <time>2014-01-18T09:08:54Z</time>
      </trkpt>
      <trkpt lat="45.10185" lon="5.6177">
        <ele>1796</ele>
        <time>2014-01-18T09:09:01Z</time>
      </trkpt>
      <trkpt lat="45.10188" lon="5.61773">
        <ele>1796.599975586</ele>
        <time>2014-01-18T09:09:05Z</time>
      </trkpt>
      <trkpt lat="45.10193" lon="5.61776">
        <ele>1797.199951172</ele>
        <time>2014-01-18T09:09:12Z</time>
      </trkpt>
      <trkpt lat="45.10197" lon="5.61781">
        <ele>1798.400024414</ele>
        <time>2014-01-18T09:09:18Z</time>
      </trkpt>
      <trkpt lat="45.10201" lon="5.61785">
        <ele>1799.400024414</ele>
        <time>2014-01-18T09:09:24Z</time>
      </trkpt>
      <trkpt lat="45.10205" lon="5.61788">
        <ele>1800.199951172</ele>
        <time>2014-01-18T09:09:29Z</time>
      </trkpt>
      <trkpt lat="45.10205" lon="5.61789">
        <ele>1800.400024414</ele>
        <time>2014-01-18T09:09:30Z</time>
      </trkpt>
      <trkpt lat="45.10207" lon="5.6179">
        <ele>1800.800048828</ele>
        <time>2014-01-18T09:09:33Z</time>
      </trkpt>
      <trkpt lat="45.10208" lon="5.61792">
        <ele>1801.199951172</ele>
        <time>2014-01-18T09:09:35Z</time>
      </trkpt>
      <trkpt lat="45.10212" lon="5.61796">
        <ele>1802.400024414</ele>
        <time>2014-01-18T09:09:41Z</time>
      </trkpt>
      <trkpt lat="45.10214" lon="5.61798">
        <ele>1803.199951172</ele>
        <time>2014-01-18T09:09:46Z</time>
      </trkpt>
      <trkpt lat="45.10218" lon="5.61803">
        <ele>1804.400024414</ele>
        <time>2014-01-18T09:09:53Z</time>
      </trkpt>
      <trkpt lat="45.10222" lon="5.61807">
        <ele>1805.599975586</ele>
        <time>2014-01-18T09:10:00Z</time>
      </trkpt>
      <trkpt lat="45.10224" lon="5.61807">
        <ele>1805.599975586</ele>
        <time>2014-01-18T09:10:04Z</time>
      </trkpt>
      <trkpt lat="45.10225" lon="5.61808">
        <ele>1805.599975586</ele>
        <time>2014-01-18T09:10:09Z</time>
      </trkpt>
      <trkpt lat="45.10227" lon="5.61811">
        <ele>1806.400024414</ele>
        <time>2014-01-18T09:10:14Z</time>
      </trkpt>
      <trkpt lat="45.10231" lon="5.61815">
        <ele>1807.599975586</ele>
        <time>2014-01-18T09:10:21Z</time>
      </trkpt>
      <trkpt lat="45.10234" lon="5.61818">
        <ele>1808.599975586</ele>
        <time>2014-01-18T09:10:26Z</time>
      </trkpt>
      <trkpt lat="45.10239" lon="5.61822">
        <ele>1809.800048828</ele>
        <time>2014-01-18T09:10:34Z</time>
      </trkpt>
      <trkpt lat="45.10244" lon="5.61827">
        <ele>1810.800048828</ele>
        <time>2014-01-18T09:10:41Z</time>
      </trkpt>
      <trkpt lat="45.10248" lon="5.61829">
        <ele>1811.599975586</ele>
        <time>2014-01-18T09:10:47Z</time>
      </trkpt>
      <trkpt lat="45.1025" lon="5.61831">
        <ele>1812</ele>
        <time>2014-01-18T09:10:51Z</time>
      </trkpt>
      <trkpt lat="45.10254" lon="5.61836">
        <ele>1813</ele>
        <time>2014-01-18T09:10:58Z</time>
      </trkpt>
      <trkpt lat="45.10256" lon="5.6184">
        <ele>1813.599975586</ele>
        <time>2014-01-18T09:11:02Z</time>
      </trkpt>
      <trkpt lat="45.10258" lon="5.61842">
        <ele>1813.800048828</ele>
        <time>2014-01-18T09:11:06Z</time>
      </trkpt>
      <trkpt lat="45.1026" lon="5.61847">
        <ele>1814.599975586</ele>
        <time>2014-01-18T09:11:12Z</time>
      </trkpt>
      <trkpt lat="45.10264" lon="5.61853">
        <ele>1815.400024414</ele>
        <time>2014-01-18T09:11:20Z</time>
      </trkpt>
      <trkpt lat="45.10266" lon="5.61855">
        <ele>1815.400024414</ele>
        <time>2014-01-18T09:11:24Z</time>
      </trkpt>
      <trkpt lat="45.1027" lon="5.61858">
        <ele>1815.599975586</ele>
        <time>2014-01-18T09:11:30Z</time>
      </trkpt>
      <trkpt lat="45.10273" lon="5.61861">
        <ele>1815.599975586</ele>
        <time>2014-01-18T09:11:35Z</time>
      </trkpt>
      <trkpt lat="45.10275" lon="5.61862">
        <ele>1815.599975586</ele>
        <time>2014-01-18T09:11:38Z</time>
      </trkpt>
      <trkpt lat="45.10278" lon="5.61865">
        <ele>1815.599975586</ele>
        <time>2014-01-18T09:11:43Z</time>
      </trkpt>
      <trkpt lat="45.10281" lon="5.61868">
        <ele>1816</ele>
        <time>2014-01-18T09:11:49Z</time>
      </trkpt>
      <trkpt lat="45.10284" lon="5.61876">
        <ele>1817.199951172</ele>
        <time>2014-01-18T09:11:58Z</time>
      </trkpt>
      <trkpt lat="45.10286" lon="5.61879">
        <ele>1817.599975586</ele>
        <time>2014-01-18T09:12:02Z</time>
      </trkpt>
      <trkpt lat="45.10288" lon="5.61881">
        <ele>1817.800048828</ele>
        <time>2014-01-18T09:12:08Z</time>
      </trkpt>
      <trkpt lat="45.10289" lon="5.61879">
        <ele>1817</ele>
        <time>2014-01-18T09:12:38Z</time>
      </trkpt>
      <trkpt lat="45.10289" lon="5.6188">
        <ele>1817</ele>
        <time>2014-01-18T09:12:49Z</time>
      </trkpt>
      <trkpt lat="45.1029" lon="5.61884">
        <ele>1818</ele>
        <time>2014-01-18T09:13:03Z</time>
      </trkpt>
      <trkpt lat="45.10291" lon="5.61888">
        <ele>1819</ele>
        <time>2014-01-18T09:13:08Z</time>
      </trkpt>
      <trkpt lat="45.10291" lon="5.61892">
        <ele>1820</ele>
        <time>2014-01-18T09:13:12Z</time>
      </trkpt>
      <trkpt lat="45.10292" lon="5.61897">
        <ele>1821.199951172</ele>
        <time>2014-01-18T09:13:17Z</time>
      </trkpt>
      <trkpt lat="45.10294" lon="5.61901">
        <ele>1821.800048828</ele>
        <time>2014-01-18T09:13:22Z</time>
      </trkpt>
      <trkpt lat="45.10295" lon="5.61905">
        <ele>1822.599975586</ele>
        <time>2014-01-18T09:13:26Z</time>
      </trkpt>
      <trkpt lat="45.10297" lon="5.6191">
        <ele>1823.199951172</ele>
        <time>2014-01-18T09:13:31Z</time>
      </trkpt>
      <trkpt lat="45.103" lon="5.61915">
        <ele>1824.199951172</ele>
        <time>2014-01-18T09:13:37Z</time>
      </trkpt>
      <trkpt lat="45.10301" lon="5.61919">
        <ele>1824.400024414</ele>
        <time>2014-01-18T09:13:41Z</time>
      </trkpt>
      <trkpt lat="45.10303" lon="5.61923">
        <ele>1824.400024414</ele>
        <time>2014-01-18T09:13:48Z</time>
      </trkpt>
      <trkpt lat="45.10305" lon="5.61926">
        <ele>1824.599975586</ele>
        <time>2014-01-18T09:13:53Z</time>
      </trkpt>
      <trkpt lat="45.10306" lon="5.61931">
        <ele>1824.800048828</ele>
        <time>2014-01-18T09:13:58Z</time>
      </trkpt>
      <trkpt lat="45.10309" lon="5.61936">
        <ele>1825</ele>
        <time>2014-01-18T09:14:04Z</time>
      </trkpt>
      <trkpt lat="45.10309" lon="5.61939">
        <ele>1825.199951172</ele>
        <time>2014-01-18T09:14:08Z</time>
      </trkpt>
      <trkpt lat="45.1031" lon="5.61944">
        <ele>1825.599975586</ele>
        <time>2014-01-18T09:14:13Z</time>
      </trkpt>
      <trkpt lat="45.10311" lon="5.61948">
        <ele>1826</ele>
        <time>2014-01-18T09:14:17Z</time>
      </trkpt>
      <trkpt lat="45.10314" lon="5.61954">
        <ele>1826.400024414</ele>
        <time>2014-01-18T09:14:25Z</time>
      </trkpt>
      <trkpt lat="45.10314" lon="5.61959">
        <ele>1826.800048828</ele>
        <time>2014-01-18T09:14:31Z</time>
      </trkpt>
      <trkpt lat="45.10313" lon="5.61961">
        <ele>1827.400024414</ele>
        <time>2014-01-18T09:14:37Z</time>
      </trkpt>
      <trkpt lat="45.1031" lon="5.61961">
        <ele>1828</ele>
        <time>2014-01-18T09:14:43Z</time>
      </trkpt>
      <trkpt lat="45.10309" lon="5.61963">
        <ele>1828.599975586</ele>
        <time>2014-01-18T09:14:48Z</time>
      </trkpt>
      <trkpt lat="45.10309" lon="5.61966">
        <ele>1829</ele>
        <time>2014-01-18T09:14:52Z</time>
      </trkpt>
      <trkpt lat="45.10309" lon="5.6197">
        <ele>1829.599975586</ele>
        <time>2014-01-18T09:14:57Z</time>
      </trkpt>
      <trkpt lat="45.1031" lon="5.61972">
        <ele>1829.599975586</ele>
        <time>2014-01-18T09:15:01Z</time>
      </trkpt>
      <trkpt lat="45.10311" lon="5.61974">
        <ele>1829.800048828</ele>
        <time>2014-01-18T09:15:06Z</time>
      </trkpt>
      <trkpt lat="45.10311" lon="5.61978">
        <ele>1830.199951172</ele>
        <time>2014-01-18T09:15:10Z</time>
      </trkpt>
      <trkpt lat="45.10312" lon="5.61981">
        <ele>1830.400024414</ele>
        <time>2014-01-18T09:15:14Z</time>
      </trkpt>
      <trkpt lat="45.10312" lon="5.61984">
        <ele>1830.800048828</ele>
        <time>2014-01-18T09:15:18Z</time>
      </trkpt>
      <trkpt lat="45.10312" lon="5.6199">
        <ele>1831.599975586</ele>
        <time>2014-01-18T09:15:25Z</time>
      </trkpt>
      <trkpt lat="45.10313" lon="5.61992">
        <ele>1831.800048828</ele>
        <time>2014-01-18T09:15:29Z</time>
      </trkpt>
      <trkpt lat="45.10312" lon="5.61995">
        <ele>1832.400024414</ele>
        <time>2014-01-18T09:15:33Z</time>
      </trkpt>
      <trkpt lat="45.10311" lon="5.61999">
        <ele>1833.199951172</ele>
        <time>2014-01-18T09:15:38Z</time>
      </trkpt>
      <trkpt lat="45.10311" lon="5.62003">
        <ele>1832.800048828</ele>
        <time>2014-01-18T09:15:42Z</time>
      </trkpt>
      <trkpt lat="45.10311" lon="5.62001">
        <ele>1833.199951172</ele>
        <time>2014-01-18T09:15:50Z</time>
      </trkpt>
      <trkpt lat="45.10311" lon="5.62">
        <ele>1833.400024414</ele>
        <time>2014-01-18T09:15:56Z</time>
      </trkpt>
      <trkpt lat="45.10311" lon="5.62">
        <ele>1833.400024414</ele>
        <time>2014-01-18T09:16:01Z</time>
      </trkpt>
      <trkpt lat="45.10311" lon="5.62002">
        <ele>1833</ele>
        <time>2014-01-18T09:16:22Z</time>
      </trkpt>
      <trkpt lat="45.10307" lon="5.61999">
        <ele>1834.199951172</ele>
        <time>2014-01-18T09:17:13Z</time>
      </trkpt>
      <trkpt lat="45.10305" lon="5.61998">
        <ele>1834.599975586</ele>
        <time>2014-01-18T09:17:17Z</time>
      </trkpt>
      <trkpt lat="45.10301" lon="5.61997">
        <ele>1835.400024414</ele>
        <time>2014-01-18T09:17:23Z</time>
      </trkpt>
      <trkpt lat="45.10297" lon="5.61996">
        <ele>1836</ele>
        <time>2014-01-18T09:17:29Z</time>
      </trkpt>
      <trkpt lat="45.10296" lon="5.61996">
        <ele>1836.400024414</ele>
        <time>2014-01-18T09:17:36Z</time>
      </trkpt>
      <trkpt lat="45.10295" lon="5.62001">
        <ele>1836.800048828</ele>
        <time>2014-01-18T09:17:43Z</time>
      </trkpt>
      <trkpt lat="45.10295" lon="5.62005">
        <ele>1835.800048828</ele>
        <time>2014-01-18T09:17:48Z</time>
      </trkpt>
      <trkpt lat="45.10295" lon="5.62008">
        <ele>1835</ele>
        <time>2014-01-18T09:17:52Z</time>
      </trkpt>
      <trkpt lat="45.10294" lon="5.62008">
        <ele>1835.400024414</ele>
        <time>2014-01-18T09:17:56Z</time>
      </trkpt>
      <trkpt lat="45.10291" lon="5.62009">
        <ele>1836</ele>
        <time>2014-01-18T09:18:01Z</time>
      </trkpt>
      <trkpt lat="45.10289" lon="5.62008">
        <ele>1836.400024414</ele>
        <time>2014-01-18T09:18:05Z</time>
      </trkpt>
      <trkpt lat="45.10285" lon="5.62007">
        <ele>1837.800048828</ele>
        <time>2014-01-18T09:18:13Z</time>
      </trkpt>
      <trkpt lat="45.10281" lon="5.62007">
        <ele>1838.400024414</ele>
        <time>2014-01-18T09:18:19Z</time>
      </trkpt>
      <trkpt lat="45.10279" lon="5.62008">
        <ele>1838.800048828</ele>
        <time>2014-01-18T09:18:23Z</time>
      </trkpt>
      <trkpt lat="45.10279" lon="5.62008">
        <ele>1838.800048828</ele>
        <time>2014-01-18T09:18:30Z</time>
      </trkpt>
      <trkpt lat="45.10276" lon="5.62007">
        <ele>1839.599975586</ele>
        <time>2014-01-18T09:19:58Z</time>
      </trkpt>
      <trkpt lat="45.10278" lon="5.62005">
        <ele>1839.800048828</ele>
        <time>2014-01-18T09:20:27Z</time>
      </trkpt>
      <trkpt lat="45.10278" lon="5.62005">
        <ele>1839.599975586</ele>
        <time>2014-01-18T09:21:08Z</time>
      </trkpt>
      <trkpt lat="45.10279" lon="5.62005">
        <ele>1839.599975586</ele>
        <time>2014-01-18T09:22:19Z</time>
      </trkpt>
      <trkpt lat="45.10278" lon="5.62007">
        <ele>1839.199951172</ele>
        <time>2014-01-18T09:23:32Z</time>
      </trkpt>
      <trkpt lat="45.10278" lon="5.62006">
        <ele>1839.400024414</ele>
        <time>2014-01-18T09:24:24Z</time>
      </trkpt>
      <trkpt lat="45.10279" lon="5.62003">
        <ele>1840</ele>
        <time>2014-01-18T09:25:10Z</time>
      </trkpt>
      <trkpt lat="45.10281" lon="5.61998">
        <ele>1840.400024414</ele>
        <time>2014-01-18T09:25:39Z</time>
      </trkpt>
      <trkpt lat="45.10284" lon="5.61995">
        <ele>1839</ele>
        <time>2014-01-18T09:25:40Z</time>
      </trkpt>
      <trkpt lat="45.10292" lon="5.61995">
        <ele>1837.199951172</ele>
        <time>2014-01-18T09:25:42Z</time>
      </trkpt>
      <trkpt lat="45.10305" lon="5.61997">
        <ele>1834.400024414</ele>
        <time>2014-01-18T09:25:45Z</time>
      </trkpt>
      <trkpt lat="45.10319" lon="5.6201">
        <ele>1829.400024414</ele>
        <time>2014-01-18T09:25:49Z</time>
      </trkpt>
      <trkpt lat="45.10325" lon="5.62015">
        <ele>1826.800048828</ele>
        <time>2014-01-18T09:25:51Z</time>
      </trkpt>
      <trkpt lat="45.10333" lon="5.62013">
        <ele>1825.400024414</ele>
        <time>2014-01-18T09:25:53Z</time>
      </trkpt>
      <trkpt lat="45.10339" lon="5.62007">
        <ele>1824.599975586</ele>
        <time>2014-01-18T09:25:55Z</time>
      </trkpt>
      <trkpt lat="45.10344" lon="5.62">
        <ele>1823.800048828</ele>
        <time>2014-01-18T09:25:57Z</time>
      </trkpt>
      <trkpt lat="45.10357" lon="5.61995">
        <ele>1818.599975586</ele>
        <time>2014-01-18T09:26:01Z</time>
      </trkpt>
      <trkpt lat="45.10356" lon="5.61997">
        <ele>1819</ele>
        <time>2014-01-18T09:26:04Z</time>
      </trkpt>
      <trkpt lat="45.10357" lon="5.61997">
        <ele>1818.800048828</ele>
        <time>2014-01-18T09:26:10Z</time>
      </trkpt>
      <trkpt lat="45.10363" lon="5.61996">
        <ele>1816.400024414</ele>
        <time>2014-01-18T09:26:12Z</time>
      </trkpt>
      <trkpt lat="45.10367" lon="5.61994">
        <ele>1814.599975586</ele>
        <time>2014-01-18T09:26:13Z</time>
      </trkpt>
      <trkpt lat="45.10374" lon="5.61978">
        <ele>1809.800048828</ele>
        <time>2014-01-18T09:26:16Z</time>
      </trkpt>
      <trkpt lat="45.10377" lon="5.61974">
        <ele>1808.199951172</ele>
        <time>2014-01-18T09:26:17Z</time>
      </trkpt>
      <trkpt lat="45.10382" lon="5.61969">
        <ele>1805.599975586</ele>
        <time>2014-01-18T09:26:19Z</time>
      </trkpt>
      <trkpt lat="45.10387" lon="5.61967">
        <ele>1803.599975586</ele>
        <time>2014-01-18T09:26:20Z</time>
      </trkpt>
      <trkpt lat="45.10393" lon="5.6196">
        <ele>1800.400024414</ele>
        <time>2014-01-18T09:26:23Z</time>
      </trkpt>
      <trkpt lat="45.10399" lon="5.6195">
        <ele>1796.800048828</ele>
        <time>2014-01-18T09:26:26Z</time>
      </trkpt>
      <trkpt lat="45.10415" lon="5.61939">
        <ele>1789.400024414</ele>
        <time>2014-01-18T09:26:29Z</time>
      </trkpt>
      <trkpt lat="45.10427" lon="5.61946">
        <ele>1788.800048828</ele>
        <time>2014-01-18T09:26:31Z</time>
      </trkpt>
      <trkpt lat="45.10428" lon="5.6195">
        <ele>1789.199951172</ele>
        <time>2014-01-18T09:26:34Z</time>
      </trkpt>
      <trkpt lat="45.10425" lon="5.61948">
        <ele>1789.199951172</ele>
        <time>2014-01-18T09:26:37Z</time>
      </trkpt>
      <trkpt lat="45.10424" lon="5.61949">
        <ele>1789.400024414</ele>
        <time>2014-01-18T09:26:42Z</time>
      </trkpt>
      <trkpt lat="45.10421" lon="5.61939">
        <ele>1788.400024414</ele>
        <time>2014-01-18T09:26:45Z</time>
      </trkpt>
      <trkpt lat="45.1042" lon="5.61919">
        <ele>1785.800048828</ele>
        <time>2014-01-18T09:26:48Z</time>
      </trkpt>
      <trkpt lat="45.10422" lon="5.61893">
        <ele>1781</ele>
        <time>2014-01-18T09:26:51Z</time>
      </trkpt>
      <trkpt lat="45.10422" lon="5.61883">
        <ele>1779</ele>
        <time>2014-01-18T09:26:52Z</time>
      </trkpt>
      <trkpt lat="45.10433" lon="5.6187">
        <ele>1774.400024414</ele>
        <time>2014-01-18T09:26:54Z</time>
      </trkpt>
      <trkpt lat="45.10448" lon="5.6185">
        <ele>1767</ele>
        <time>2014-01-18T09:26:57Z</time>
      </trkpt>
      <trkpt lat="45.10461" lon="5.61833">
        <ele>1759.599975586</ele>
        <time>2014-01-18T09:27:00Z</time>
      </trkpt>
      <trkpt lat="45.10467" lon="5.61809">
        <ele>1752</ele>
        <time>2014-01-18T09:27:03Z</time>
      </trkpt>
      <trkpt lat="45.10469" lon="5.61803">
        <ele>1749.800048828</ele>
        <time>2014-01-18T09:27:04Z</time>
      </trkpt>
      <trkpt lat="45.10471" lon="5.61795">
        <ele>1747.199951172</ele>
        <time>2014-01-18T09:27:05Z</time>
      </trkpt>
      <trkpt lat="45.10477" lon="5.61794">
        <ele>1745.599975586</ele>
        <time>2014-01-18T09:27:06Z</time>
      </trkpt>
      <trkpt lat="45.10485" lon="5.61786">
        <ele>1740.800048828</ele>
        <time>2014-01-18T09:27:09Z</time>
      </trkpt>
      <trkpt lat="45.10493" lon="5.61773">
        <ele>1735.199951172</ele>
        <time>2014-01-18T09:27:12Z</time>
      </trkpt>
      <trkpt lat="45.105" lon="5.61762">
        <ele>1730.199951172</ele>
        <time>2014-01-18T09:27:15Z</time>
      </trkpt>
      <trkpt lat="45.10508" lon="5.61745">
        <ele>1723.800048828</ele>
        <time>2014-01-18T09:27:18Z</time>
      </trkpt>
      <trkpt lat="45.10516" lon="5.61744">
        <ele>1721.199951172</ele>
        <time>2014-01-18T09:27:20Z</time>
      </trkpt>
      <trkpt lat="45.10524" lon="5.6172">
        <ele>1714.199951172</ele>
        <time>2014-01-18T09:27:23Z</time>
      </trkpt>
      <trkpt lat="45.10534" lon="5.61708">
        <ele>1708.599975586</ele>
        <time>2014-01-18T09:27:25Z</time>
      </trkpt>
      <trkpt lat="45.10536" lon="5.61699">
        <ele>1706</ele>
        <time>2014-01-18T09:27:26Z</time>
      </trkpt>
      <trkpt lat="45.10548" lon="5.61677">
        <ele>1697.400024414</ele>
        <time>2014-01-18T09:27:29Z</time>
      </trkpt>
      <trkpt lat="45.10552" lon="5.61667">
        <ele>1694.199951172</ele>
        <time>2014-01-18T09:27:30Z</time>
      </trkpt>
      <trkpt lat="45.10556" lon="5.61663">
        <ele>1691.400024414</ele>
        <time>2014-01-18T09:27:31Z</time>
      </trkpt>
      <trkpt lat="45.10561" lon="5.61661">
        <ele>1689.400024414</ele>
        <time>2014-01-18T09:27:32Z</time>
      </trkpt>
      <trkpt lat="45.10562" lon="5.61649">
        <ele>1685.599975586</ele>
        <time>2014-01-18T09:27:34Z</time>
      </trkpt>
      <trkpt lat="45.10569" lon="5.61631">
        <ele>1678.199951172</ele>
        <time>2014-01-18T09:27:37Z</time>
      </trkpt>
      <trkpt lat="45.1057" lon="5.61607">
        <ele>1671.199951172</ele>
        <time>2014-01-18T09:27:40Z</time>
      </trkpt>
      <trkpt lat="45.10576" lon="5.6159">
        <ele>1664.199951172</ele>
        <time>2014-01-18T09:27:43Z</time>
      </trkpt>
      <trkpt lat="45.10587" lon="5.61576">
        <ele>1657</ele>
        <time>2014-01-18T09:27:46Z</time>
      </trkpt>
      <trkpt lat="45.10589" lon="5.6156">
        <ele>1652.199951172</ele>
        <time>2014-01-18T09:27:48Z</time>
      </trkpt>
      <trkpt lat="45.10596" lon="5.61551">
        <ele>1647.800048828</ele>
        <time>2014-01-18T09:27:50Z</time>
      </trkpt>
      <trkpt lat="45.10609" lon="5.61536">
        <ele>1639.199951172</ele>
        <time>2014-01-18T09:27:53Z</time>
      </trkpt>
      <trkpt lat="45.1062" lon="5.61531">
        <ele>1634.400024414</ele>
        <time>2014-01-18T09:27:55Z</time>
      </trkpt>
      <trkpt lat="45.10633" lon="5.61513">
        <ele>1625.199951172</ele>
        <time>2014-01-18T09:27:58Z</time>
      </trkpt>
      <trkpt lat="45.10649" lon="5.61501">
        <ele>1616.400024414</ele>
        <time>2014-01-18T09:28:01Z</time>
      </trkpt>
      <trkpt lat="45.10653" lon="5.61498">
        <ele>1614.400024414</ele>
        <time>2014-01-18T09:28:02Z</time>
      </trkpt>
      <trkpt lat="45.10663" lon="5.61489">
        <ele>1609.199951172</ele>
        <time>2014-01-18T09:28:04Z</time>
      </trkpt>
      <trkpt lat="45.10678" lon="5.61478">
        <ele>1602</ele>
        <time>2014-01-18T09:28:07Z</time>
      </trkpt>
      <trkpt lat="45.10693" lon="5.61461">
        <ele>1593.800048828</ele>
        <time>2014-01-18T09:28:10Z</time>
      </trkpt>
      <trkpt lat="45.10707" lon="5.6145">
        <ele>1586.599975586</ele>
        <time>2014-01-18T09:28:13Z</time>
      </trkpt>
      <trkpt lat="45.1072" lon="5.61432">
        <ele>1577.599975586</ele>
        <time>2014-01-18T09:28:16Z</time>
      </trkpt>
      <trkpt lat="45.10735" lon="5.61416">
        <ele>1568.400024414</ele>
        <time>2014-01-18T09:28:19Z</time>
      </trkpt>
      <trkpt lat="45.1075" lon="5.61401">
        <ele>1559.400024414</ele>
        <time>2014-01-18T09:28:22Z</time>
      </trkpt>
      <trkpt lat="45.10766" lon="5.61383">
        <ele>1552</ele>
        <time>2014-01-18T09:28:25Z</time>
      </trkpt>
      <trkpt lat="45.10777" lon="5.61374">
        <ele>1547.599975586</ele>
        <time>2014-01-18T09:28:27Z</time>
      </trkpt>
      <trkpt lat="45.10793" lon="5.61354">
        <ele>1539.400024414</ele>
        <time>2014-01-18T09:28:30Z</time>
      </trkpt>
      <trkpt lat="45.10799" lon="5.61351">
        <ele>1537</ele>
        <time>2014-01-18T09:28:31Z</time>
      </trkpt>
      <trkpt lat="45.10807" lon="5.61334">
        <ele>1531</ele>
        <time>2014-01-18T09:28:33Z</time>
      </trkpt>
      <trkpt lat="45.10807" lon="5.61317">
        <ele>1528.599975586</ele>
        <time>2014-01-18T09:28:35Z</time>
      </trkpt>
      <trkpt lat="45.10804" lon="5.61312">
        <ele>1528.400024414</ele>
        <time>2014-01-18T09:28:36Z</time>
      </trkpt>
      <trkpt lat="45.10803" lon="5.61309">
        <ele>1528.199951172</ele>
        <time>2014-01-18T09:28:37Z</time>
      </trkpt>
      <trkpt lat="45.10804" lon="5.6131">
        <ele>1528.199951172</ele>
        <time>2014-01-18T09:28:38Z</time>
      </trkpt>
      <trkpt lat="45.10804" lon="5.61312">
        <ele>1528.400024414</ele>
        <time>2014-01-18T09:28:39Z</time>
      </trkpt>
      <trkpt lat="45.10803" lon="5.61316">
        <ele>1529.400024414</ele>
        <time>2014-01-18T09:28:42Z</time>
      </trkpt>
      <trkpt lat="45.10802" lon="5.61317">
        <ele>1529.599975586</ele>
        <time>2014-01-18T09:28:43Z</time>
      </trkpt>
      <trkpt lat="45.10804" lon="5.61317">
        <ele>1529.199951172</ele>
        <time>2014-01-18T09:28:47Z</time>
      </trkpt>
      <trkpt lat="45.10808" lon="5.61314">
        <ele>1527.800048828</ele>
        <time>2014-01-18T09:28:48Z</time>
      </trkpt>
      <trkpt lat="45.10816" lon="5.61287">
        <ele>1521.599975586</ele>
        <time>2014-01-18T09:28:51Z</time>
      </trkpt>
      <trkpt lat="45.10831" lon="5.61267">
        <ele>1514.599975586</ele>
        <time>2014-01-18T09:28:54Z</time>
      </trkpt>
      <trkpt lat="45.10834" lon="5.61259">
        <ele>1512.400024414</ele>
        <time>2014-01-18T09:28:55Z</time>
      </trkpt>
      <trkpt lat="45.10843" lon="5.61241">
        <ele>1508.800048828</ele>
        <time>2014-01-18T09:28:57Z</time>
      </trkpt>
      <trkpt lat="45.10858" lon="5.61235">
        <ele>1506</ele>
        <time>2014-01-18T09:28:59Z</time>
      </trkpt>
      <trkpt lat="45.10868" lon="5.61213">
        <ele>1502.599975586</ele>
        <time>2014-01-18T09:29:01Z</time>
      </trkpt>
      <trkpt lat="45.10875" lon="5.61204">
        <ele>1500.800048828</ele>
        <time>2014-01-18T09:29:02Z</time>
      </trkpt>
      <trkpt lat="45.10893" lon="5.61203">
        <ele>1497.199951172</ele>
        <time>2014-01-18T09:29:04Z</time>
      </trkpt>
      <trkpt lat="45.10906" lon="5.61189">
        <ele>1493.400024414</ele>
        <time>2014-01-18T09:29:06Z</time>
      </trkpt>
      <trkpt lat="45.10914" lon="5.61188">
        <ele>1491.599975586</ele>
        <time>2014-01-18T09:29:07Z</time>
      </trkpt>
      <trkpt lat="45.10927" lon="5.61187">
        <ele>1489.400024414</ele>
        <time>2014-01-18T09:29:09Z</time>
      </trkpt>
      <trkpt lat="45.10944" lon="5.61175">
        <ele>1485.400024414</ele>
        <time>2014-01-18T09:29:12Z</time>
      </trkpt>
      <trkpt lat="45.10959" lon="5.61159">
        <ele>1480.800048828</ele>
        <time>2014-01-18T09:29:15Z</time>
      </trkpt>
      <trkpt lat="45.10972" lon="5.61155">
        <ele>1478.199951172</ele>
        <time>2014-01-18T09:29:17Z</time>
      </trkpt>
      <trkpt lat="45.10988" lon="5.61132">
        <ele>1471.800048828</ele>
        <time>2014-01-18T09:29:20Z</time>
      </trkpt>
      <trkpt lat="45.11007" lon="5.61122">
        <ele>1467</ele>
        <time>2014-01-18T09:29:23Z</time>
      </trkpt>
      <trkpt lat="45.11022" lon="5.61094">
        <ele>1459.800048828</ele>
        <time>2014-01-18T09:29:26Z</time>
      </trkpt>
      <trkpt lat="45.1103" lon="5.6107">
        <ele>1454.400024414</ele>
        <time>2014-01-18T09:29:28Z</time>
      </trkpt>
      <trkpt lat="45.11044" lon="5.61054">
        <ele>1449.599975586</ele>
        <time>2014-01-18T09:29:30Z</time>
      </trkpt>
      <trkpt lat="45.11052" lon="5.61044">
        <ele>1446.800048828</ele>
        <time>2014-01-18T09:29:31Z</time>
      </trkpt>
      <trkpt lat="45.11067" lon="5.61018">
        <ele>1440.599975586</ele>
        <time>2014-01-18T09:29:34Z</time>
      </trkpt>
      <trkpt lat="45.11084" lon="5.60997">
        <ele>1434.800048828</ele>
        <time>2014-01-18T09:29:37Z</time>
      </trkpt>
      <trkpt lat="45.11103" lon="5.60987">
        <ele>1432</ele>
        <time>2014-01-18T09:29:40Z</time>
      </trkpt>
      <trkpt lat="45.11119" lon="5.60968">
        <ele>1429</ele>
        <time>2014-01-18T09:29:43Z</time>
      </trkpt>
      <trkpt lat="45.11123" lon="5.60956">
        <ele>1428</ele>
        <time>2014-01-18T09:29:44Z</time>
      </trkpt>
      <trkpt lat="45.11129" lon="5.6095">
        <ele>1426.800048828</ele>
        <time>2014-01-18T09:29:45Z</time>
      </trkpt>
      <trkpt lat="45.11137" lon="5.60946">
        <ele>1425.400024414</ele>
        <time>2014-01-18T09:29:46Z</time>
      </trkpt>
      <trkpt lat="45.11154" lon="5.60932">
        <ele>1422</ele>
        <time>2014-01-18T09:29:49Z</time>
      </trkpt>
      <trkpt lat="45.11169" lon="5.60925">
        <ele>1419.400024414</ele>
        <time>2014-01-18T09:29:52Z</time>
      </trkpt>
      <trkpt lat="45.11186" lon="5.60923">
        <ele>1418.599975586</ele>
        <time>2014-01-18T09:29:56Z</time>
      </trkpt>
      <trkpt lat="45.11198" lon="5.60936">
        <ele>1419</ele>
        <time>2014-01-18T09:30:00Z</time>
      </trkpt>
      <trkpt lat="45.11203" lon="5.60928">
        <ele>1418.400024414</ele>
        <time>2014-01-18T09:30:03Z</time>
      </trkpt>
      <trkpt lat="45.11196" lon="5.60917">
        <ele>1418</ele>
        <time>2014-01-18T09:30:07Z</time>
      </trkpt>
      <trkpt lat="45.11193" lon="5.60914">
        <ele>1417.800048828</ele>
        <time>2014-01-18T09:30:08Z</time>
      </trkpt>
      <trkpt lat="45.11183" lon="5.60906">
        <ele>1417.199951172</ele>
        <time>2014-01-18T09:30:12Z</time>
      </trkpt>
      <trkpt lat="45.11176" lon="5.609">
        <ele>1416.599975586</ele>
        <time>2014-01-18T09:30:17Z</time>
      </trkpt>
      <trkpt lat="45.11172" lon="5.60898">
        <ele>1416.400024414</ele>
        <time>2014-01-18T09:30:22Z</time>
      </trkpt>
      <trkpt lat="45.11172" lon="5.60897">
        <ele>1416.400024414</ele>
        <time>2014-01-18T09:30:23Z</time>
      </trkpt>
      <trkpt lat="45.11171" lon="5.60897">
        <ele>1416.400024414</ele>
        <time>2014-01-18T09:30:29Z</time>
      </trkpt>
      <trkpt lat="45.11171" lon="5.60896">
        <ele>1416.400024414</ele>
        <time>2014-01-18T09:30:38Z</time>
      </trkpt>
      <trkpt lat="45.11172" lon="5.60897">
        <ele>1416.400024414</ele>
        <time>2014-01-18T09:30:47Z</time>
      </trkpt>
    </trkseg>
  </trk>
</gpx>